Pastebin launched a little side project called VERYVIRAL.com, check it out ;-) Want more features on Pastebin? Sign Up, it's FREE!
Guest

Untitled

By: a guest on Aug 1st, 2010  |  syntax: None  |  size: 76.74 KB  |  views: 65  |  expires: Never
download  |  raw  |  embed  |  report abuse  |  print
Text below is selected. Please press Ctrl+C to copy to your clipboard. (⌘+C on Mac)
  1. 11:11:42 T:4192 M:591302656  NOTICE: -----------------------------------------------------------------------
  2. 11:11:42 T:4192 M:591298560  NOTICE: Starting XBMC, Platform: Windows 7, 32-bit build 7600. Built on Jul 31 2010 (SVN:32375, compiler 1500)
  3. 11:11:42 T:4192 M:591298560  NOTICE: Intel(R) Core(TM)2 CPU         T5600  @ 1.83GHz
  4. 11:11:42 T:4192 M:591298560  NOTICE: Desktop Resolution: 1920x1080 32Bit at 60Hz
  5. 11:11:42 T:4192 M:591298560  NOTICE: Running with administrator rights
  6. 11:11:42 T:4192 M:591298560  NOTICE: special://xbmc/ is mapped to: C:\Program Files\XBMC
  7. 11:11:42 T:4192 M:591298560  NOTICE: special://xbmcbin/ is mapped to: C:\Program Files\XBMC
  8. 11:11:42 T:4192 M:591298560  NOTICE: special://masterprofile/ is mapped to: C:\Users\goran\AppData\Roaming\XBMC\userdata
  9. 11:11:42 T:4192 M:591298560  NOTICE: special://home/ is mapped to: C:\Users\goran\AppData\Roaming\XBMC
  10. 11:11:42 T:4192 M:591298560  NOTICE: special://temp/ is mapped to: C:\Users\goran\AppData\Roaming\XBMC\cache
  11. 11:11:42 T:4192 M:591298560  NOTICE: The executable running is: C:\Program Files\XBMC\XBMC.exe
  12. 11:11:42 T:4192 M:591298560  NOTICE: Log File is located: C:\Users\goran\AppData\Roaming\XBMC\xbmc.log
  13. 11:11:42 T:4192 M:591298560  NOTICE: -----------------------------------------------------------------------
  14. 11:11:42 T:4192 M:591273984  NOTICE: Setup SDL
  15. 11:11:42 T:4192 M:591130624  NOTICE: Found screen: Generic PnP Monitor on Mobile Intel(R) 945 Express Chipset Family, adapter 0.
  16. 11:11:42 T:4192 M:591126528  NOTICE: Primary mode: 1920x1080 @ 60.00 - Full Screen
  17. 11:11:42 T:4192 M:591011840  NOTICE: Additional mode: 640x480 @ 60.00 - Full Screen
  18. 11:11:42 T:4192 M:590987264  NOTICE: Additional mode: 720x480 @ 59.94 - Full Screen
  19. 11:11:42 T:4192 M:590995456  NOTICE: Additional mode: 720x480 @ 60.00 - Full Screen
  20. 11:11:42 T:4192 M:590987264  NOTICE: Additional mode: 720x576 @ 50.00 - Full Screen
  21. 11:11:42 T:4192 M:590995456  NOTICE: Additional mode: 800x600 @ 60.00 - Full Screen
  22. 11:11:42 T:4192 M:590987264  NOTICE: Additional mode: 1024x768 @ 60.00 - Full Screen
  23. 11:11:42 T:4192 M:590987264  NOTICE: Additional mode: 1152x864 @ 60.00 - Full Screen
  24. 11:11:42 T:4192 M:590987264  NOTICE: Additional mode: 1280x600 @ 60.00 - Full Screen
  25. 11:11:42 T:4192 M:590987264  NOTICE: Additional mode: 1280x720 @ 50.00 - Full Screen
  26. 11:11:42 T:4192 M:591056896  NOTICE: Additional mode: 1280x720 @ 60.00 - Full Screen
  27. 11:11:42 T:4192 M:590987264  NOTICE: Additional mode: 1280x768 @ 60.00 - Full Screen
  28. 11:11:42 T:4192 M:590987264  NOTICE: Additional mode: 1280x960 @ 60.00 - Full Screen
  29. 11:11:42 T:4192 M:590987264  NOTICE: Additional mode: 1280x1024 @ 60.00 - Full Screen
  30. 11:11:42 T:4192 M:590987264  NOTICE: Additional mode: 1400x1050 @ 60.00 - Full Screen
  31. 11:11:42 T:4192 M:590987264  NOTICE: Additional mode: 1600x900 @ 60.00 - Full Screen
  32. 11:11:42 T:4192 M:590987264  NOTICE: Additional mode: 1680x1050 @ 60.00 - Full Screen
  33. 11:11:42 T:4192 M:591020032  NOTICE: Additional mode: 1920x1080 @ 24.00 - Full Screen
  34. 11:11:42 T:4192 M:590950400  NOTICE: Additional mode: 1920x1080 @ 50.00 - Full Screen
  35. 11:11:42 T:4192 M:590934016  NOTICE: Additional mode: 1920x1080 @ 25.00i - Full Screen
  36. 11:11:42 T:4192 M:590938112  NOTICE: Additional mode: 1920x1080 @ 60.00 - Full Screen
  37. 11:11:42 T:4192 M:590938112  NOTICE: Additional mode: 1920x1080 @ 30.00i - Full Screen
  38. 11:11:42 T:4192 M:591024128  NOTICE: load settings...
  39. 11:11:43 T:4192 M:591024128  NOTICE: special://profile/ is mapped to: special://masterprofile/
  40. 11:11:43 T:4192 M:591020032  NOTICE: loading special://masterprofile/guisettings.xml
  41. 11:11:43 T:4192 M:589873152  NOTICE: Getting hardware information now...
  42. 11:11:43 T:4192 M:589873152  NOTICE: Checking resolution 11
  43. 11:11:43 T:4192 M:589799424  NOTICE: Loading player core factory settings from special://xbmc/system/playercorefactory.xml.
  44. 11:11:43 T:4192 M:589791232  NOTICE: Loaded playercorefactory configuration
  45. 11:11:43 T:4192 M:589791232  NOTICE: Loading player core factory settings from special://profile/playercorefactory.xml.
  46. 11:11:43 T:4192 M:589783040  NOTICE: Loaded playercorefactory configuration
  47. 11:11:43 T:4192 M:589774848  NOTICE: Loaded advancedsettings.xml from special://profile/advancedsettings.xml
  48. 11:11:43 T:4192 M:589774848  NOTICE: Contents of special://profile/advancedsettings.xml are...
  49.                                             <advancedsettings />
  50. 11:11:43 T:4192 M:589762560  NOTICE: Getting hardware information now...
  51. 11:11:43 T:4192 M:589762560  NOTICE: Checking resolution 11
  52. 11:11:43 T:4192 M:589762560  NOTICE: Default DVD Player: dvdplayer
  53. 11:11:43 T:4192 M:589762560  NOTICE: Default Video Player: dvdplayer
  54. 11:11:43 T:4192 M:589762560  NOTICE: Default Audio Player: paplayer
  55. 11:11:43 T:4192 M:589762560  NOTICE: Enabled debug logging due to GUI setting (2)
  56. 11:11:43 T:4192 M:589955072  NOTICE: Loading media sources from special://masterprofile/sources.xml
  57. 11:11:43 T:4192 M:589938688    INFO: creating subdirectories
  58. 11:11:43 T:4192 M:589938688    INFO: userdata folder: special://masterprofile/
  59. 11:11:43 T:4192 M:589938688    INFO: recording folder:
  60. 11:11:43 T:4192 M:589938688    INFO: screenshots folder:
  61. 11:11:43 T:4192 M:589938688    INFO: thumbnails folder: special://masterprofile/Thumbnails
  62. 11:11:43 T:4192 M:589938688    INFO: load language info file: special://xbmc/language/English/langinfo.xml
  63. 11:11:43 T:4192 M:589926400    INFO: load language file:special://xbmc/language/English/strings.xml
  64. 11:11:43 T:4192 M:589750272   DEBUG: Win32DllLoader::Load(special://xbmcbin/system/cpluff.dll)
  65. 11:11:43 T:4192 M:589598720   DEBUG: Win32DllLoader::Load(special://xbmcbin/system/libexpat.dll)
  66. 11:11:43 T:4192 M:588140544   DEBUG: ADDON: cpluff: 'Plug-in skin.refocus has been installed.'
  67. 11:11:43 T:4192 M:588140544   DEBUG: ADDON: cpluff: 'Plug-in script.xbmc.subtitles has been installed.'
  68. 11:11:43 T:4192 M:588140544   DEBUG: ADDON: cpluff: 'Plug-in plugin.audio.shoutcast has been installed.'
  69. 11:11:43 T:4192 M:588140544   DEBUG: ADDON: cpluff: 'Plug-in metadata.albums.allmusic.com has been installed.'
  70. 11:11:43 T:4192 M:588140544   DEBUG: ADDON: cpluff: 'Plug-in repository.xbmc.org has been installed.'
  71. 11:11:43 T:4192 M:588140544   DEBUG: ADDON: cpluff: 'Plug-in screensaver.xbmc.builtin.black has been installed.'
  72. 11:11:43 T:4192 M:588140544   DEBUG: ADDON: cpluff: 'Plug-in screensaver.rsxs.euphoria has been installed.'
  73. 11:11:43 T:4192 M:588140544   DEBUG: ADDON: cpluff: 'Plug-in visualization.projectm has been installed.'
  74. 11:11:43 T:4192 M:588140544   DEBUG: ADDON: cpluff: 'Plug-in screensaver.xbmc.builtin.dim has been installed.'
  75. 11:11:43 T:4192 M:588140544   DEBUG: ADDON: cpluff: 'Plug-in metadata.themoviedb.org has been installed.'
  76. 11:11:43 T:4192 M:588140544   DEBUG: ADDON: cpluff: 'Plug-in metadata.artists.allmusic.com has been installed.'
  77. 11:11:43 T:4192 M:588140544   DEBUG: ADDON: cpluff: 'Plug-in xbmc.metadata has been installed.'
  78. 11:11:43 T:4192 M:588140544   DEBUG: ADDON: cpluff: 'Plug-in skin.confluence has been installed.'
  79. 11:11:43 T:4192 M:588140544   DEBUG: ADDON: cpluff: 'Plug-in skin.back-row has been installed.'
  80. 11:11:43 T:4192 M:588140544   DEBUG: ADDON: cpluff: 'Plug-in script.cu.lyrics has been installed.'
  81. 11:11:43 T:4192 M:588140544   DEBUG: ADDON: cpluff: 'Plug-in metadata.artists.last.fm has been installed.'
  82. 11:11:43 T:4192 M:588140544   DEBUG: ADDON: cpluff: 'Plug-in visualization.glspectrum has been installed.'
  83. 11:11:43 T:4192 M:588140544   DEBUG: ADDON: cpluff: 'Plug-in xbmc.gui has been installed.'
  84. 11:11:43 T:4192 M:588140544   DEBUG: ADDON: cpluff: 'Plug-in visualization.milkdrop has been installed.'
  85. 11:11:43 T:4192 M:588140544   DEBUG: ADDON: cpluff: 'Plug-in script.module.pil has been installed.'
  86. 11:11:43 T:4192 M:588140544   DEBUG: ADDON: cpluff: 'Plug-in visualization.dxspectrum has been installed.'
  87. 11:11:43 T:4192 M:588140544   DEBUG: ADDON: cpluff: 'Plug-in metadata.last.fm has been installed.'
  88. 11:11:43 T:4192 M:588124160   DEBUG: ADDON: cpluff: 'Plug-in xbmc.core has been installed.'
  89. 11:11:43 T:4192 M:588124160   DEBUG: ADDON: cpluff: 'Plug-in metadata.common.impa.com has been installed.'
  90. 11:11:43 T:4192 M:588124160   DEBUG: ADDON: cpluff: 'Plug-in script.recentlyadded has been installed.'
  91. 11:11:43 T:4192 M:588124160   DEBUG: ADDON: cpluff: 'Plug-in plugin.video.youtube has been installed.'
  92. 11:11:43 T:4192 M:588124160   DEBUG: ADDON: cpluff: 'Plug-in metadata.albums.last.fm has been installed.'
  93. 11:11:43 T:4192 M:588124160   DEBUG: ADDON: cpluff: 'Plug-in plugin.audio.ListenLiveEU has been installed.'
  94. 11:11:43 T:4192 M:588124160   DEBUG: ADDON: cpluff: 'Plug-in screensaver.xbmc.builtin.slideshow has been installed.'
  95. 11:11:43 T:4192 M:588124160   DEBUG: ADDON: cpluff: 'Plug-in script.cdartmanager has been installed.'
  96. 11:11:43 T:4192 M:588124160   DEBUG: ADDON: cpluff: 'Plug-in metadata.common.movieposterdb.com has been installed.'
  97. 11:11:43 T:4192 M:588124160   DEBUG: ADDON: cpluff: 'Plug-in metadata.imdb.com has been installed.'
  98. 11:11:43 T:4192 M:588124160   DEBUG: ADDON: cpluff: 'Plug-in metadata.common.htbackdrops.com has been installed.'
  99. 11:11:43 T:4192 M:588124160   DEBUG: ADDON: cpluff: 'Plug-in metadata.tvdb.com has been installed.'
  100. 11:11:43 T:4192 M:588124160   DEBUG: ADDON: cpluff: 'Plug-in metadata.common.allmusic.com has been installed.'
  101. 11:11:43 T:4192 M:588124160   DEBUG: ADDON: cpluff: 'Plug-in metadata.allmusic.com has been installed.'
  102. 11:11:43 T:4192 M:588124160   DEBUG: ADDON: cpluff: 'Plug-in weather.xbmc.builtin has been installed.'
  103. 11:11:43 T:4192 M:588124160   DEBUG: ADDON: cpluff: 'Plug-in plugin.video.apple.movie.trailers.lite has been installed.'
  104. 11:11:43 T:4192 M:588124160   DEBUG: ADDON: cpluff: 'Plug-in metadata.artists.1ting.com has been installed.'
  105. 11:11:43 T:4192 M:588124160   DEBUG: ADDON: cpluff: 'Plug-in metadata.common.last.fm has been installed.'
  106. 11:11:43 T:4192 M:588107776   DEBUG: ADDON: cpluff: 'Plug-in metadata.common.themoviedb.org has been installed.'
  107. 11:11:43 T:4192 M:588107776   DEBUG: ADDON: cpluff: 'Plug-in metadata.common.dtrailer.com has been installed.'
  108. 11:11:43 T:4192 M:588107776   DEBUG: ADDON: cpluff: 'Plug-in xbmc.python has been installed.'
  109. 11:11:43 T:4192 M:588107776   DEBUG: ADDON: cpluff: 'Plug-in metadata.common.imdb.com has been installed.'
  110. 11:11:43 T:4192 M:588107776   DEBUG: ADDON: cpluff: 'Plug-in xbmc.addon has been installed.'
  111. 11:11:43 T:4192 M:588107776   DEBUG: ADDON: cpluff: 'Plug-in visualization.waveform has been installed.'
  112. 11:11:43 T:4192 M:588107776   DEBUG: ADDON: cpluff: 'Plug-in skin.transparency has been installed.'
  113. 11:11:43 T:4192 M:588107776   DEBUG: ADDON: cpluff: 'Plug-in screensaver.rsxs.plasma has been installed.'
  114. 11:11:43 T:4192 M:588107776   DEBUG: ADDON: cpluff: 'Plug-in script.module.pysqlite has been installed.'
  115. 11:11:43 T:4192 M:588107776   DEBUG: ADDON: cpluff: 'Plug-in metadata.mtv.com has been installed.'
  116. 11:11:43 T:4192 M:588107776   DEBUG: ADDON: cpluff: 'Plug-in visualization.itunes has been installed.'
  117. 11:11:43 T:4192 M:588107776   DEBUG: ADDON: cpluff: 'Plug-in skin.mediastream_redux has been installed.'
  118. 11:11:43 T:4192 M:588107776   DEBUG: ADDON: cpluff: 'Plug-in metadata.common.hdtrailers.net has been installed.'
  119. 11:11:43 T:4192 M:588107776   DEBUG: ADDON: cpluff: 'Not all directories were successfully scanned.'
  120. 11:11:43 T:4932 M:588021760   DEBUG: thread start, auto delete: 0
  121. 11:11:43 T:4192 M:587673600   DEBUG: CWinEventsWin32::WndProcWindow is active
  122. 11:11:43 T:4192 M:587665408   DEBUG: CWinEventsWin32::WndProcWindow gained focus
  123. 11:11:43 T:4192 M:587665408   DEBUG: CWinSystemWin32::ResizeInternal - resizing due to size change (714,343,1198,691)->(714,343,1206,718)
  124. 11:11:43 T:4192 M:587591680   DEBUG: CRenderSystemDX::InitRenderSystem - trying D3D9Ex...
  125. 11:11:43 T:4192 M:578039808   DEBUG: CRenderSystemDX::InitRenderSystem - using D3D9Ex
  126. 11:11:43 T:4192 M:577945600   DEBUG: CRenderSystemDX::CreateDevice on adapter 0
  127. 11:11:43 T:4192 M:577839104 WARNING: CRenderSystemDX::CreateDevice - initial wanted device config failed
  128. 11:11:43 T:4192 M:574971904   DEBUG: CRenderSystemDX::CreateDevice - adapter 0: igdumd32.dll, Mobile Intel(R) 945 Express Chipset Family, VendorId 32902, DeviceId 10146
  129. 11:11:43 T:4192 M:574947328   DEBUG: CRenderSystemDX::CreateDevice - using D3DCAPS2_DYNAMICTEXTURES
  130. 11:11:43 T:4192 M:574947328   DEBUG: CRenderSystemDX::CreateDevice - texture caps: 0x0025ED47
  131. 11:11:43 T:4192 M:574943232   DEBUG: CRenderSystemDX::CreateDevice - RENDER_CAPS_DXT
  132. 11:11:43 T:4192 M:574943232   DEBUG: CRenderSystemDX::CreateDevice - RENDER_CAPS_NPOT
  133. 11:11:43 T:4192 M:574869504    INFO: load default splash image: C:\Program Files\XBMC\media\Splash.png
  134. 11:11:43 T:4192 M:574771200   DEBUG: Win32DllLoader::Load(special://xbmcbin/system/ImageLib.dll)
  135. 11:11:43 T:4192 M:569057280    INFO: load keymapping
  136. 11:11:43 T:4192 M:568975360    INFO: Loading special://xbmc/system/keymaps/gamepad.xml
  137. 11:11:43 T:4192 M:569188352    INFO: Loading special://xbmc/system/keymaps/joystick.Alienware.Dual.Compatible.Controller.xml
  138. 11:11:43 T:4192 M:569155584    INFO: Loading special://xbmc/system/keymaps/joystick.AppleRemote.xml
  139. 11:11:43 T:4192 M:569143296    INFO: Loading special://xbmc/system/keymaps/joystick.Harmony.xml
  140. 11:11:43 T:4192 M:569118720    INFO: Loading special://xbmc/system/keymaps/joystick.Interact.AxisPad.xml
  141. 11:11:43 T:4192 M:569110528    INFO: Loading special://xbmc/system/keymaps/joystick.Logitech.RumblePad.2.xml
  142. 11:11:43 T:4192 M:569102336    INFO: Loading special://xbmc/system/keymaps/joystick.Microsoft.Xbox.360.Controller.xml
  143. 11:11:43 T:4192 M:569085952    INFO: Loading special://xbmc/system/keymaps/joystick.Microsoft.Xbox.Controller.S.xml
  144. 11:11:43 T:4192 M:569061376    INFO: Loading special://xbmc/system/keymaps/joystick.PS3.Remote.Keyboard.xml
  145. 11:11:43 T:4192 M:569049088    INFO: Loading special://xbmc/system/keymaps/joystick.WiiRemote.xml
  146. 11:11:43 T:4192 M:569036800    INFO: Loading special://xbmc/system/keymaps/keyboard.xml
  147. 11:11:43 T:4192 M:568582144    INFO: Loading special://xbmc/system/keymaps/remote.xml
  148. 11:11:43 T:4192 M:568553472    INFO: Loading special://xbmc/system/IRSSmap.xml
  149. 11:11:43 T:4192 M:568549376    INFO: * Adding remote mapping for device 'Microsoft MCE'
  150. 11:11:43 T:4192 M:568549376    INFO: * Adding remote mapping for device 'Abstract'
  151. 11:11:43 T:4192 M:568549376   DEBUG: CButtonTranslator::Load - no userdata IRSSmap.xml found, skipping
  152. 11:11:43 T:4192 M:568549376    INFO: GUI format 484x348 Windowed
  153. 11:11:43 T:4192 M:568541184  NOTICE: initializing playlistplayer
  154. 11:11:43 T:4192 M:568537088  NOTICE: DONE initializing playlistplayer
  155. 11:11:43 T:4192 M:568537088   DEBUG: DPMS: supported power-saving modes: OFF STANDBY
  156. 11:11:43 T:4192 M:568102912    INFO:   delete old skin...
  157. 11:11:43 T:4192 M:567517184   DEBUG: ------ Window Deinit (Pointer.xml) ------
  158. 11:11:43 T:4192 M:567517184   DEBUG: ------ Window Deinit (DialogMuteBug.xml) ------
  159. 11:11:43 T:4192 M:567508992    INFO:   load skin from:C:\Program Files\XBMC\addons\skin.refocus
  160. 11:11:43 T:4192 M:567508992    INFO: Default 4:3 resolution directory is C:\Program Files\XBMC\addons\skin.refocus\720p
  161. 11:11:43 T:4192 M:567508992    INFO: Default 16:9 resolution directory is C:\Program Files\XBMC\addons\skin.refocus\720p
  162. 11:11:43 T:4192 M:567504896    INFO: Loading skin includes from C:\Program Files\XBMC\addons\skin.refocus\720p\includes.xml
  163. 11:11:43 T:4192 M:567320576    INFO: Error loading includes.xml file (C:\Program Files\XBMC\addons\skin.refocus\720p\HomeMusicMenu.xml): Failed to open file (row=0, col=0)
  164. 11:11:43 T:4192 M:567320576    INFO: Error loading includes.xml file (C:\Program Files\XBMC\addons\skin.refocus\720p\HomeVideoMenu.xml): Failed to open file (row=0, col=0)
  165. 11:11:43 T:4192 M:567320576    INFO: Error loading includes.xml file (C:\Program Files\XBMC\addons\skin.refocus\720p\HomePicturesMenu.xml): Failed to open file (row=0, col=0)
  166. 11:11:43 T:4192 M:567320576    INFO: Error loading includes.xml file (C:\Program Files\XBMC\addons\skin.refocus\720p\HomeAccessoriesMenu.xml): Failed to open file (row=0, col=0)
  167. 11:11:43 T:4192 M:567320576    INFO: Error loading includes.xml file (C:\Program Files\XBMC\addons\skin.refocus\720p\HomeSettingsMenu.xml): Failed to open file (row=0, col=0)
  168. 11:11:43 T:4192 M:567304192    INFO: Error loading includes.xml file (C:\Program Files\XBMC\addons\skin.refocus\720p\HomeExitMenu.xml): Failed to open file (row=0, col=0)
  169. 11:11:43 T:4192 M:566132736    INFO:   load fonts for skin...
  170. 11:11:43 T:4192 M:566120448    INFO: Loading fonts from C:\Program Files\XBMC\addons\skin.refocus\720p\Font.xml
  171. 11:11:43 T:4192 M:561963008    INFO:   load new skin...
  172. 11:11:43 T:4192 M:561963008    INFO: Loading skin file: Home.xml
  173. 11:11:44 T:4192 M:559521792   DEBUG: Load Home.xml: 214.68ms
  174. 11:11:44 T:4192 M:559517696    INFO: Loading user windows, path C:\Program Files\XBMC\addons\skin.refocus\720p
  175. 11:11:44 T:4192 M:559489024   DEBUG: Load Skin XML: 221.86ms
  176. 11:11:44 T:4192 M:559489024    INFO:   initialize new skin...
  177. 11:11:44 T:4192 M:559489024    INFO: Loading skin file: Pointer.xml
  178. 11:11:44 T:4192 M:559480832   DEBUG: Load Pointer.xml: 0.79ms
  179. 11:11:44 T:4192 M:559427584   DEBUG: Alloc resources: 4.33ms (0.83 ms skin load)
  180. 11:11:44 T:4192 M:559427584    INFO: Loading skin file: DialogVolumeBar.xml
  181. 11:11:44 T:4192 M:559411200 WARNING: Skin has invalid include: transition1
  182. 11:11:44 T:4192 M:559411200 WARNING: Previous line repeats 1 times.
  183. 11:11:44 T:4192 M:559411200   DEBUG: Load DialogVolumeBar.xml: 1.42ms
  184. 11:11:44 T:4192 M:559394816   DEBUG: Alloc resources: 3.94ms (1.46 ms skin load)
  185. 11:11:44 T:4192 M:559394816    INFO: Loading skin file: DialogSeekBar.xml
  186. 11:11:44 T:4192 M:559386624   DEBUG: Load DialogSeekBar.xml: 5.75ms
  187. 11:11:44 T:4192 M:559386624   DEBUG: Alloc resources: 6.04ms (5.83 ms skin load)
  188. 11:11:44 T:4192 M:559386624    INFO: Loading skin file: DialogKaiToast.xml
  189. 11:11:44 T:4192 M:559382528   ERROR: unable to load:C:\Program Files\XBMC\addons\skin.refocus\720p\DialogKaiToast.xml, Line 23
  190.                                             Error reading end tag.
  191. 11:11:44 T:4192 M:559382528   DEBUG: Load DialogKaiToast.xml: 1.67ms
  192. 11:11:44 T:4192 M:559382528   DEBUG: Alloc resources: 1.72ms (1.71 ms skin load)
  193. 11:11:44 T:4192 M:559382528    INFO: Loading skin file: DialogMuteBug.xml
  194. 11:11:44 T:4192 M:559382528   ERROR: unable to load:C:\Program Files\XBMC\addons\skin.refocus\720p\DialogMuteBug.xml, Line 0
  195.                                             Failed to open file
  196. 11:11:44 T:4192 M:559382528   DEBUG: Load DialogMuteBug.xml: 0.32ms
  197. 11:11:44 T:4192 M:559382528   DEBUG: Alloc resources: 0.36ms (0.35 ms skin load)
  198. 11:11:44 T:4192 M:559374336    INFO: Loading skin file: DialogVolumeBar.xml
  199. 11:11:44 T:4192 M:559374336 WARNING: Skin has invalid include: transition1
  200. 11:11:44 T:4192 M:559374336 WARNING: Previous line repeats 1 times.
  201. 11:11:44 T:4192 M:559374336   DEBUG: Load DialogVolumeBar.xml: 1.67ms
  202. 11:11:44 T:4192 M:559374336    INFO: Loading skin file: DialogKaiToast.xml
  203. 11:11:44 T:4192 M:559374336   ERROR: unable to load:C:\Program Files\XBMC\addons\skin.refocus\720p\DialogKaiToast.xml, Line 23
  204.                                             Error reading end tag.
  205. 11:11:44 T:4192 M:559374336   DEBUG: Load DialogKaiToast.xml: 1.89ms
  206. 11:11:44 T:4192 M:559374336    INFO: Loading skin file: DialogSeekBar.xml
  207. 11:11:44 T:4192 M:559374336   DEBUG: Load DialogSeekBar.xml: 6.19ms
  208. 11:11:44 T:4192 M:559374336    INFO: Loading skin file: DialogBusy.xml
  209. 11:11:44 T:4192 M:559366144   DEBUG: Load DialogBusy.xml: 1.33ms
  210. 11:11:44 T:4192 M:559353856    INFO:   skin loaded...
  211. 11:11:44 T:4192 M:559353856   DEBUG: Activating window ID: 12999
  212. 11:11:44 T:4192 M:559353856   DEBUG: Checking if window ID 12999 is locked.
  213. 11:11:44 T:4192 M:559353856   DEBUG: ------ Window Init (Startup.xml) ------
  214. 11:11:44 T:4192 M:559353856    INFO: Loading skin file: Startup.xml
  215. 11:11:44 T:4192 M:559349760   DEBUG: Load Startup.xml: 2.95ms
  216. 11:11:44 T:4192 M:559349760   DEBUG: Alloc resources: 3.02ms (3.02 ms skin load)
  217. 11:11:44 T:4192 M:559349760    INFO: removing tempfiles
  218. 11:11:44 T:4192 M:559345664  NOTICE: CApplication::UpdateLibraries - Starting video library startup scan
  219. 11:11:44 T:4192 M:559337472   DEBUG: ------ Window Init (DialogVideoScan.xml) ------
  220. 11:11:44 T:4192 M:559337472    INFO: Loading skin file: DialogVideoScan.xml
  221. 11:11:44 T:4192 M:559333376 WARNING: Skin has invalid include: transition1
  222. 11:11:44 T:4192 M:559333376 WARNING: Previous line repeats 1 times.
  223. 11:11:44 T:4192 M:559333376   DEBUG: Load DialogVideoScan.xml: 2.09ms
  224. 11:11:44 T:4192 M:559333376   DEBUG: Alloc resources: 2.15ms (2.15 ms skin load)
  225. 11:11:44 T:4192 M:559124480  NOTICE: initialize done
  226. 11:11:44 T:4192 M:559124480  NOTICE: Running the application...
  227. 11:11:44 T:5384 M:559124480   DEBUG: thread start, auto delete: 0
  228. 11:11:44 T:4192 M:559124480   DEBUG: XBPython::Process - no profile autoexec.py (C:\Users\goran\AppData\Roaming\XBMC\userdata\autoexec.py) found, skipping
  229. 11:11:44 T:4192 M:559116288   DEBUG: CNetwork::NetworkMessage - Starting network services
  230. 11:11:44 T:4192 M:559108096  NOTICE: ES: Starting event server
  231. 11:11:44 T:4192 M:559083520   DEBUG: CLastfmScrobbler: Clearing session.
  232. 11:11:44 T:4164 M:559083520   DEBUG: Previous line repeats 1 times.
  233. 11:11:44 T:4164 M:559083520   DEBUG: thread start, auto delete: 0
  234. 11:11:44 T:4164 M:559079424  NOTICE: ES: Starting UDP Event server on 127.0.0.1:9777
  235. 11:11:44 T:4192 M:559079424   DEBUG: CLastfmScrobbler: special://masterprofile/LastfmScrobbler.xml, Line 0 (Failed to open file)
  236. 11:11:44 T:4192 M:559079424   DEBUG: CLibrefmScrobbler: Clearing session.
  237. 11:11:44 T:5384 M:559075328  NOTICE: VideoInfoScanner: Starting scan ..
  238. 11:11:44 T:4164 M:559071232  NOTICE: UDP: Listening on port 9777
  239. 11:11:44 T:220 M:559067136   DEBUG: thread start, auto delete: 0
  240. 11:11:44 T:220 M:559067136   DEBUG: CLastfmScrobbler: Thread started.
  241. 11:11:44 T:220 M:559046656   DEBUG: Win32DllLoader::Load(special://xbmcbin/system/libcurl.dll)
  242. 11:11:44 T:220 M:558006272   DEBUG: Win32DllLoader::Load(special://xbmcbin/system/libidn-11.dll)
  243. 11:11:44 T:220 M:557875200   DEBUG: Win32DllLoader::Load(special://xbmcbin/system/libeay32.dll)
  244. 11:11:44 T:220 M:557867008   DEBUG: Win32DllLoader::Load(special://xbmcbin/system/libssl32.dll)
  245. 11:11:44 T:220 M:556892160   DEBUG: Win32DllLoader::Load(ADVAPI32.DLL)
  246. 11:11:44 T:2024 M:556761088   DEBUG: thread start, auto delete: 0
  247. 11:11:44 T:2024 M:556408832    INFO: JSONRPC Server: Successfully initialized
  248. 11:11:44 T:220 M:556392448   DEBUG: Win32DllLoader::Load(KERNEL32.DLL)
  249. 11:11:44 T:220 M:556376064   DEBUG: Win32DllLoader::Load(NETAPI32.DLL)
  250. 11:11:44 T:220 M:554774528   DEBUG: FreeLibrary(NETAPI32.DLL) -> 0360EF90
  251. 11:11:44 T:220 M:554774528   DEBUG: Win32DllLoader::Unload NETAPI32.DLL
  252. 11:11:44 T:220 M:554831872   DEBUG: FreeLibrary(ADVAPI32.DLL) -> 0360F030
  253. 11:11:44 T:220 M:554831872   DEBUG: Win32DllLoader::Unload ADVAPI32.DLL
  254. 11:11:44 T:220 M:554831872   DEBUG: Win32DllLoader::Load(USER32.DLL)
  255. 11:11:44 T:220 M:554831872   DEBUG: FreeLibrary(USER32.DLL) -> 0360F030
  256. 11:11:44 T:220 M:554831872   DEBUG: Win32DllLoader::Unload USER32.DLL
  257. 11:11:44 T:4620 M:553902080   DEBUG: thread start, auto delete: 1
  258. 11:11:46 T:220 M:554913792   DEBUG: FreeLibrary(KERNEL32.DLL) -> 0360EEF0
  259. 11:11:46 T:220 M:554913792   DEBUG: Win32DllLoader::Unload KERNEL32.DLL
  260. 11:11:46 T:220 M:554352640   DEBUG: Win32DllLoader::Load(secur32.dll)
  261. 11:11:49 T:5384 M:515997696  NOTICE: VideoInfoScanner: Finished scan. Scanning for video info took 00:05
  262. 11:11:49 T:5384 M:515997696    INFO: Video scan was stopped or finished ... restoring FindRemoteThumbs
  263. 11:11:49 T:5384 M:515997696   DEBUG: Thread 5384 terminating
  264. 11:11:50 T:4192 M:515493888   DEBUG: ------ Window Deinit (DialogVideoScan.xml) ------
  265. 11:11:51 T:4192 M:515784704   DEBUG: SDLKeyboard: scancode: 28, sym: 271, unicode: 13, modifier: 0
  266. 11:11:51 T:4192 M:515784704   DEBUG: CApplication::OnKey: 61548 pressed, action is Select
  267. 11:11:51 T:4192 M:515784704   DEBUG: CApplication::ExecuteXBMCAction : Translating SetFocus(1110)
  268. 11:11:51 T:4192 M:515784704   DEBUG: CApplication::ExecuteXBMCAction : To SetFocus(1110)
  269. 11:11:57 T:4192 M:506527744   DEBUG: SDLKeyboard: scancode: 72, sym: 273, unicode: 0, modifier: 0
  270. 11:11:57 T:4192 M:506527744   DEBUG: CApplication::OnKey: 61478 pressed, action is Up
  271. 11:11:58 T:4192 M:506802176   DEBUG: SDLKeyboard: scancode: 28, sym: 271, unicode: 13, modifier: 0
  272. 11:11:58 T:4192 M:506802176   DEBUG: CApplication::OnKey: 61548 pressed, action is Select
  273. 11:11:58 T:4192 M:506802176   DEBUG: CApplication::ExecuteXBMCAction : Translating ActivateWindow(MyVideoFiles)
  274. 11:11:58 T:4192 M:506802176   DEBUG: CApplication::ExecuteXBMCAction : To ActivateWindow(MyVideoFiles)
  275. 11:11:58 T:4192 M:506802176   DEBUG: Activating window ID: 10024
  276. 11:11:58 T:4192 M:506802176   DEBUG: Checking if window ID 10024 is locked.
  277. 11:11:58 T:4192 M:506802176   DEBUG: ------ Window Deinit (Home.xml) ------
  278. 11:11:59 T:4192 M:506761216   DEBUG: ------ Window Init (MyVideo.xml) ------
  279. 11:11:59 T:4192 M:506761216    INFO: Loading skin file: MyVideo.xml
  280. 11:11:59 T:4192 M:506757120 WARNING: Skin has invalid include: pageContextMenu
  281. 11:11:59 T:4192 M:506753024 WARNING: Skin has invalid include: amtIgnore
  282. 11:11:59 T:4192 M:506753024 WARNING: Previous line repeats 2 times.
  283. 11:11:59 T:4192 M:506753024 WARNING: Skin has invalid include: amtAllow
  284. 11:11:59 T:4192 M:506753024 WARNING: Previous line repeats 2 times.
  285. 11:11:59 T:4192 M:506753024 WARNING: Skin has invalid include: amtIgnore
  286. 11:11:59 T:4192 M:506753024 WARNING: Previous line repeats 2 times.
  287. 11:11:59 T:4192 M:506753024 WARNING: Skin has invalid include: amtAllow
  288. 11:11:59 T:4192 M:506753024 WARNING: Previous line repeats 2 times.
  289. 11:11:59 T:4192 M:506753024 WARNING: Skin has invalid include: amtIgnore
  290. 11:11:59 T:4192 M:506748928 WARNING: Previous line repeats 2 times.
  291. 11:11:59 T:4192 M:506748928 WARNING: Skin has invalid include: amtAllow
  292. 11:11:59 T:4192 M:506667008 WARNING: Previous line repeats 2 times.
  293. 11:11:59 T:4192 M:506667008   DEBUG: Load MyVideo.xml: 112.30ms
  294. 11:11:59 T:4192 M:506703872   DEBUG: Alloc resources: 115.13ms (112.38 ms skin load)
  295. 11:11:59 T:4192 M:506695680   DEBUG: CGUIMediaWindow::GetDirectory ()
  296. 11:11:59 T:4192 M:506695680   DEBUG:   ParentPath = []
  297. 11:11:59 T:2752 M:506691584   DEBUG: thread start, auto delete: 0
  298. 11:11:59 T:4192 M:506691584   DEBUG: CApplication::ExecuteXBMCAction : Translating Dialog.Close(shutdownmenu)
  299. 11:11:59 T:4192 M:506691584   DEBUG: CApplication::ExecuteXBMCAction : To Dialog.Close(shutdownmenu)
  300. 11:11:59 T:2752 M:506683392   DEBUG: Thread 2752 terminating
  301. 11:11:59 T:4620 M:504741888   DEBUG: CImageLoader::DoWork - took 112 ms to load special://skin/backgrounds/library/moviesNoFanart.png
  302. 11:12:02 T:4192 M:506175488   DEBUG: SDLKeyboard: scancode: 72, sym: 273, unicode: 0, modifier: 0
  303. 11:12:02 T:4192 M:506175488   DEBUG: CApplication::OnKey: 61478 pressed, action is Up
  304. 11:12:02 T:4192 M:502636544   DEBUG: SDLKeyboard: scancode: 72, sym: 273, unicode: 0, modifier: 0
  305. 11:12:02 T:4192 M:502636544   DEBUG: CApplication::OnKey: 61478 pressed, action is Up
  306. 11:12:02 T:4192 M:502636544   DEBUG: SDLKeyboard: scancode: 72, sym: 273, unicode: 0, modifier: 0
  307. 11:12:02 T:4192 M:502636544   DEBUG: CApplication::OnKey: 61478 pressed, action is Up
  308. 11:12:03 T:4192 M:502677504   DEBUG: SDLKeyboard: scancode: 28, sym: 271, unicode: 13, modifier: 0
  309. 11:12:03 T:4192 M:502677504   DEBUG: CApplication::OnKey: 61548 pressed, action is Select
  310. 11:12:03 T:4192 M:502673408   DEBUG: CGUIMediaWindow::GetDirectory (G:\Media\Fotografije\Video\)
  311. 11:12:03 T:4192 M:502673408   DEBUG:   ParentPath = []
  312. 11:12:03 T:5580 M:502591488   DEBUG: thread start, auto delete: 0
  313. 11:12:03 T:4620 M:502546432   DEBUG: CThumbExtractor::DoWork - trying to extract thumb from video file G:\Media\Fotografije\Video\2007-09-13 Krit 1.MPG
  314. 11:12:03 T:4620 M:502509568   DEBUG: Win32DllLoader::Load(special://xbmcbin/system/players/dvdplayer/avutil-50.dll)
  315. 11:12:03 T:4620 M:502484992   DEBUG: Win32DllLoader::Load(special://xbmcbin/system/players/dvdplayer/avcodec-52.dll)
  316. 11:12:03 T:4620 M:499339264   DEBUG: Win32DllLoader::Load(special://xbmcbin/system/players/dvdplayer/libfaad.dll)
  317. 11:12:03 T:4620 M:499204096   DEBUG: Win32DllLoader::Load(special://xbmcbin/system/players/dvdplayer/avformat-52.dll)
  318. 11:12:03 T:4620 M:498024448   DEBUG: CDVDDemuxFFmpeg::Open - probing failed, re-probing with probe size [2048]
  319. 11:12:03 T:4620 M:498024448   DEBUG: CDVDDemuxFFmpeg::Open - probing failed, re-probing with probe size [4096]
  320. 11:12:03 T:4620 M:498024448   DEBUG: CDVDDemuxFFmpeg::Open - probing failed, re-probing with probe size [8192]
  321. 11:12:03 T:4620 M:498024448   DEBUG: CDVDDemuxFFmpeg::Open - probing failed, re-probing with probe size [16384]
  322. 11:12:03 T:4620 M:498024448   DEBUG: CDVDDemuxFFmpeg::Open - probing failed, re-probing with probe size [32768]
  323. 11:12:03 T:4620 M:498016256   ERROR: CDVDDemuxFFmpeg::Open - error probing input format, G:\Media\Fotografije\Video\2007-09-13 Krit 1.MPG
  324. 11:12:03 T:4620 M:498012160   ERROR: CDVDFileInfo::ExtractThumb - Error creating demuxer
  325. 11:12:03 T:4620 M:498012160   DEBUG: CThumbExtractor::DoWork - trying to extract thumb from video file G:\Media\Fotografije\Video\2007-09-14 Krit 2.MPG
  326. 11:12:03 T:4620 M:497979392   DEBUG: CDVDDemuxFFmpeg::Open - probing failed, re-probing with probe size [2048]
  327. 11:12:03 T:4620 M:497979392   DEBUG: CDVDDemuxFFmpeg::Open - probing failed, re-probing with probe size [4096]
  328. 11:12:03 T:4620 M:497979392   DEBUG: CDVDDemuxFFmpeg::Open - probing failed, re-probing with probe size [8192]
  329. 11:12:03 T:4620 M:497979392   DEBUG: CDVDDemuxFFmpeg::Open - probing failed, re-probing with probe size [16384]
  330. 11:12:03 T:4620 M:497979392   DEBUG: CDVDDemuxFFmpeg::Open - probing failed, re-probing with probe size [32768]
  331. 11:12:03 T:4620 M:497979392   ERROR: CDVDDemuxFFmpeg::Open - error probing input format, G:\Media\Fotografije\Video\2007-09-14 Krit 2.MPG
  332. 11:12:03 T:4620 M:497979392   ERROR: CDVDFileInfo::ExtractThumb - Error creating demuxer
  333. 11:12:03 T:4620 M:497729536   DEBUG: CThumbExtractor::DoWork - trying to extract thumb from video file G:\Media\Fotografije\Video\2007-09-20 Krit 3.MPG
  334. 11:12:03 T:4620 M:497696768   DEBUG: CDVDDemuxFFmpeg::Open - probing failed, re-probing with probe size [2048]
  335. 11:12:03 T:4620 M:497696768   DEBUG: CDVDDemuxFFmpeg::Open - probing failed, re-probing with probe size [4096]
  336. 11:12:03 T:4620 M:497696768   DEBUG: CDVDDemuxFFmpeg::Open - probing failed, re-probing with probe size [8192]
  337. 11:12:03 T:4620 M:497696768   DEBUG: CDVDDemuxFFmpeg::Open - probing failed, re-probing with probe size [16384]
  338. 11:12:03 T:4620 M:497696768   DEBUG: CDVDDemuxFFmpeg::Open - probing failed, re-probing with probe size [32768]
  339. 11:12:03 T:4620 M:497696768   ERROR: CDVDDemuxFFmpeg::Open - error probing input format, G:\Media\Fotografije\Video\2007-09-20 Krit 3.MPG
  340. 11:12:03 T:4620 M:497696768   ERROR: CDVDFileInfo::ExtractThumb - Error creating demuxer
  341. 11:12:03 T:4620 M:497696768   DEBUG: CThumbExtractor::DoWork - trying to extract thumb from video file G:\Media\Fotografije\Video\2007-09-20 Krit 4.MPG
  342. 11:12:03 T:4620 M:497664000   DEBUG: CDVDDemuxFFmpeg::Open - probing failed, re-probing with probe size [2048]
  343. 11:12:03 T:4620 M:497664000   DEBUG: CDVDDemuxFFmpeg::Open - probing failed, re-probing with probe size [4096]
  344. 11:12:03 T:4620 M:497664000   DEBUG: CDVDDemuxFFmpeg::Open - probing failed, re-probing with probe size [8192]
  345. 11:12:03 T:4620 M:497664000   DEBUG: CDVDDemuxFFmpeg::Open - probing failed, re-probing with probe size [16384]
  346. 11:12:03 T:4620 M:497664000   DEBUG: CDVDDemuxFFmpeg::Open - probing failed, re-probing with probe size [32768]
  347. 11:12:03 T:4620 M:497664000   ERROR: CDVDDemuxFFmpeg::Open - error probing input format, G:\Media\Fotografije\Video\2007-09-20 Krit 4.MPG
  348. 11:12:03 T:4620 M:497664000   ERROR: CDVDFileInfo::ExtractThumb - Error creating demuxer
  349. 11:12:03 T:4620 M:497664000   DEBUG: CThumbExtractor::DoWork - trying to extract thumb from video file G:\Media\Fotografije\Video\2007-09-20 Krit 5.MPG
  350. 11:12:03 T:4620 M:497627136   DEBUG: CDVDDemuxFFmpeg::Open - probing failed, re-probing with probe size [2048]
  351. 11:12:03 T:4620 M:497627136   DEBUG: CDVDDemuxFFmpeg::Open - probing failed, re-probing with probe size [4096]
  352. 11:12:03 T:4620 M:497627136   DEBUG: CDVDDemuxFFmpeg::Open - probing failed, re-probing with probe size [8192]
  353. 11:12:03 T:4620 M:497627136   DEBUG: CDVDDemuxFFmpeg::Open - probing failed, re-probing with probe size [16384]
  354. 11:12:03 T:4620 M:497627136   DEBUG: CDVDDemuxFFmpeg::Open - probing failed, re-probing with probe size [32768]
  355. 11:12:03 T:4620 M:497623040   ERROR: CDVDDemuxFFmpeg::Open - error probing input format, G:\Media\Fotografije\Video\2007-09-20 Krit 5.MPG
  356. 11:12:03 T:4620 M:497623040   ERROR: CDVDFileInfo::ExtractThumb - Error creating demuxer
  357. 11:12:03 T:4620 M:497623040   DEBUG: CThumbExtractor::DoWork - trying to extract thumb from video file G:\Media\Fotografije\Video\2008-01-07 Humska.MPG
  358. 11:12:03 T:4620 M:497590272   DEBUG: CDVDDemuxFFmpeg::Open - probing failed, re-probing with probe size [2048]
  359. 11:12:03 T:4620 M:497590272   DEBUG: CDVDDemuxFFmpeg::Open - probing failed, re-probing with probe size [4096]
  360. 11:12:03 T:4620 M:497590272   DEBUG: CDVDDemuxFFmpeg::Open - probing failed, re-probing with probe size [8192]
  361. 11:12:03 T:4620 M:497590272   DEBUG: CDVDDemuxFFmpeg::Open - probing failed, re-probing with probe size [16384]
  362. 11:12:03 T:4620 M:497590272   DEBUG: CDVDDemuxFFmpeg::Open - probing failed, re-probing with probe size [32768]
  363. 11:12:03 T:4620 M:497590272   ERROR: CDVDDemuxFFmpeg::Open - error probing input format, G:\Media\Fotografije\Video\2008-01-07 Humska.MPG
  364. 11:12:03 T:4620 M:497590272   ERROR: CDVDFileInfo::ExtractThumb - Error creating demuxer
  365. 11:12:03 T:4620 M:497590272   DEBUG: CThumbExtractor::DoWork - trying to extract thumb from video file G:\Media\Fotografije\Video\2008-05-08 Kanada 4.MPG
  366. 11:12:03 T:4620 M:497557504   DEBUG: CDVDDemuxFFmpeg::Open - probing failed, re-probing with probe size [2048]
  367. 11:12:03 T:4620 M:497557504   DEBUG: CDVDDemuxFFmpeg::Open - probing failed, re-probing with probe size [4096]
  368. 11:12:03 T:4620 M:497557504   DEBUG: CDVDDemuxFFmpeg::Open - probing failed, re-probing with probe size [8192]
  369. 11:12:03 T:4620 M:497557504   DEBUG: CDVDDemuxFFmpeg::Open - probing failed, re-probing with probe size [16384]
  370. 11:12:03 T:4620 M:497557504   DEBUG: CDVDDemuxFFmpeg::Open - probing failed, re-probing with probe size [32768]
  371. 11:12:03 T:4620 M:497557504   ERROR: CDVDDemuxFFmpeg::Open - error probing input format, G:\Media\Fotografije\Video\2008-05-08 Kanada 4.MPG
  372. 11:12:03 T:4620 M:497557504   ERROR: CDVDFileInfo::ExtractThumb - Error creating demuxer
  373. 11:12:03 T:4620 M:497557504   DEBUG: CThumbExtractor::DoWork - trying to extract thumb from video file G:\Media\Fotografije\Video\2008-06-07 Mokra gora.MPG
  374. 11:12:03 T:4620 M:497524736   DEBUG: CDVDDemuxFFmpeg::Open - probing failed, re-probing with probe size [2048]
  375. 11:12:03 T:4620 M:497524736   DEBUG: CDVDDemuxFFmpeg::Open - probing failed, re-probing with probe size [4096]
  376. 11:12:03 T:4620 M:497524736   DEBUG: CDVDDemuxFFmpeg::Open - probing failed, re-probing with probe size [8192]
  377. 11:12:03 T:4620 M:497524736   DEBUG: CDVDDemuxFFmpeg::Open - probing failed, re-probing with probe size [16384]
  378. 11:12:03 T:4620 M:497524736   DEBUG: CDVDDemuxFFmpeg::Open - probing failed, re-probing with probe size [32768]
  379. 11:12:03 T:4620 M:497524736   ERROR: CDVDDemuxFFmpeg::Open - error probing input format, G:\Media\Fotografije\Video\2008-06-07 Mokra gora.MPG
  380. 11:12:03 T:4620 M:497524736   ERROR: CDVDFileInfo::ExtractThumb - Error creating demuxer
  381. 11:12:03 T:4620 M:497524736   DEBUG: CThumbExtractor::DoWork - trying to extract thumb from video file G:\Media\Fotografije\Video\2008-05-04 Kanada 3.MPG
  382. 11:12:04 T:4620 M:497491968   DEBUG: CDVDDemuxFFmpeg::Open - probing failed, re-probing with probe size [2048]
  383. 11:12:04 T:4620 M:497491968   DEBUG: CDVDDemuxFFmpeg::Open - probing failed, re-probing with probe size [4096]
  384. 11:12:04 T:4620 M:497491968   DEBUG: CDVDDemuxFFmpeg::Open - probing failed, re-probing with probe size [8192]
  385. 11:12:04 T:4620 M:497483776   DEBUG: CDVDDemuxFFmpeg::Open - probing failed, re-probing with probe size [16384]
  386. 11:12:04 T:4620 M:497491968   DEBUG: CDVDDemuxFFmpeg::Open - probing failed, re-probing with probe size [32768]
  387. 11:12:04 T:4620 M:497491968   ERROR: CDVDDemuxFFmpeg::Open - error probing input format, G:\Media\Fotografije\Video\2008-05-04 Kanada 3.MPG
  388. 11:12:04 T:4620 M:497491968   ERROR: CDVDFileInfo::ExtractThumb - Error creating demuxer
  389. 11:12:04 T:4620 M:497491968   DEBUG: CThumbExtractor::DoWork - trying to extract thumb from video file G:\Media\Fotografije\Video\2008-05-04 Kanada 2.MPG
  390. 11:12:04 T:4620 M:497459200   DEBUG: CDVDDemuxFFmpeg::Open - probing failed, re-probing with probe size [2048]
  391. 11:12:04 T:4620 M:497459200   DEBUG: CDVDDemuxFFmpeg::Open - probing failed, re-probing with probe size [4096]
  392. 11:12:04 T:4620 M:497459200   DEBUG: CDVDDemuxFFmpeg::Open - probing failed, re-probing with probe size [8192]
  393. 11:12:04 T:4620 M:497475584   DEBUG: CDVDDemuxFFmpeg::Open - probing failed, re-probing with probe size [16384]
  394. 11:12:04 T:4620 M:497475584   DEBUG: CDVDDemuxFFmpeg::Open - probing failed, re-probing with probe size [32768]
  395. 11:12:04 T:4620 M:497475584   ERROR: CDVDDemuxFFmpeg::Open - error probing input format, G:\Media\Fotografije\Video\2008-05-04 Kanada 2.MPG
  396. 11:12:04 T:4620 M:497475584   ERROR: CDVDFileInfo::ExtractThumb - Error creating demuxer
  397. 11:12:04 T:4620 M:497475584   DEBUG: CThumbExtractor::DoWork - trying to extract thumb from video file G:\Media\Fotografije\Video\2008-04-29 Kanada 1.MPG
  398. 11:12:04 T:4620 M:497442816   DEBUG: CDVDDemuxFFmpeg::Open - probing failed, re-probing with probe size [2048]
  399. 11:12:04 T:4620 M:497442816   DEBUG: CDVDDemuxFFmpeg::Open - probing failed, re-probing with probe size [4096]
  400. 11:12:04 T:4620 M:497442816   DEBUG: CDVDDemuxFFmpeg::Open - probing failed, re-probing with probe size [8192]
  401. 11:12:04 T:4620 M:497442816   DEBUG: CDVDDemuxFFmpeg::Open - probing failed, re-probing with probe size [16384]
  402. 11:12:04 T:4620 M:497442816   DEBUG: CDVDDemuxFFmpeg::Open - probing failed, re-probing with probe size [32768]
  403. 11:12:04 T:4620 M:497377280   ERROR: CDVDDemuxFFmpeg::Open - error probing input format, G:\Media\Fotografije\Video\2008-04-29 Kanada 1.MPG
  404. 11:12:04 T:4620 M:497377280   ERROR: CDVDFileInfo::ExtractThumb - Error creating demuxer
  405. 11:12:04 T:4620 M:497377280   DEBUG: CThumbExtractor::DoWork - trying to extract thumb from video file G:\Media\Fotografije\Video\2007-09-20 Krit 6.MPG
  406. 11:12:04 T:5580 M:497295360   DEBUG: Thread 5580 terminating
  407. 11:12:04 T:4620 M:497307648   DEBUG: CDVDDemuxFFmpeg::Open - probing failed, re-probing with probe size [2048]
  408. 11:12:04 T:4620 M:497307648   DEBUG: CDVDDemuxFFmpeg::Open - probing failed, re-probing with probe size [4096]
  409. 11:12:04 T:4620 M:497307648   DEBUG: CDVDDemuxFFmpeg::Open - probing failed, re-probing with probe size [8192]
  410. 11:12:04 T:4620 M:497307648   DEBUG: CDVDDemuxFFmpeg::Open - probing failed, re-probing with probe size [16384]
  411. 11:12:04 T:4620 M:497307648   DEBUG: CDVDDemuxFFmpeg::Open - probing failed, re-probing with probe size [32768]
  412. 11:12:04 T:4620 M:497307648   ERROR: CDVDDemuxFFmpeg::Open - error probing input format, G:\Media\Fotografije\Video\2007-09-20 Krit 6.MPG
  413. 11:12:04 T:4620 M:497307648   ERROR: CDVDFileInfo::ExtractThumb - Error creating demuxer
  414. 11:12:05 T:4192 M:497127424   DEBUG: SDLKeyboard: scancode: 28, sym: 271, unicode: 13, modifier: 0
  415. 11:12:05 T:4192 M:497127424   DEBUG: CApplication::OnKey: 61548 pressed, action is Select
  416. 11:12:05 T:4192 M:497127424   DEBUG: CGUIMediaWindow::GetDirectory (G:\Media\Fotografije\Video\2010\)
  417. 11:12:05 T:4192 M:497127424   DEBUG:   ParentPath = [G:\Media\Fotografije\Video\]
  418. 11:12:05 T:5064 M:497106944   DEBUG: thread start, auto delete: 0
  419. 11:12:05 T:5064 M:495988736   DEBUG: Thread 5064 terminating
  420. 11:12:07 T:4192 M:496005120   DEBUG: SDLKeyboard: scancode: 28, sym: 271, unicode: 13, modifier: 0
  421. 11:12:07 T:4192 M:496005120   DEBUG: CApplication::OnKey: 61548 pressed, action is Select
  422. 11:12:07 T:4192 M:495976448    INFO: Loading skin file: DialogContextMenu.xml
  423. 11:12:07 T:4192 M:495972352   DEBUG: Load DialogContextMenu.xml: 1.46ms
  424. 11:12:07 T:4192 M:495972352   DEBUG: ------ Window Init (DialogContextMenu.xml) ------
  425. 11:12:07 T:4192 M:495964160   DEBUG: Alloc resources: 6.22ms (0.01 ms skin load)
  426. 11:12:09 T:4192 M:494252032   DEBUG: SDLKeyboard: scancode: 80, sym: 274, unicode: 0, modifier: 0
  427. 11:12:09 T:4192 M:494252032   DEBUG: CApplication::OnKey: 61480 pressed, action is Down
  428. 11:12:10 T:4192 M:494256128   DEBUG: SDLKeyboard: scancode: 28, sym: 271, unicode: 13, modifier: 0
  429. 11:12:10 T:4192 M:494256128   DEBUG: CApplication::OnKey: 61548 pressed, action is Select
  430. 11:12:10 T:4192 M:494256128   DEBUG: ------ Window Deinit (DialogContextMenu.xml) ------
  431. 11:12:10 T:4192 M:494223360   DEBUG: CPlayerCoreFactory::GetPlayers(G:\Media\Fotografije\Video\2010\20100606134939.m2ts)
  432. 11:12:10 T:4192 M:494219264   DEBUG: CPlayerSelectionRule::GetPlayers: considering rule: system rules
  433. 11:12:10 T:4192 M:494219264   DEBUG: CPlayerSelectionRule::GetPlayers: matches rule: system rules
  434. 11:12:10 T:4192 M:494219264   DEBUG: CPlayerSelectionRule::GetPlayers: considering rule: rtv
  435. 11:12:10 T:4192 M:494219264   DEBUG: CPlayerSelectionRule::GetPlayers: considering rule: hdhomerun/myth/rtmp/mms/udp
  436. 11:12:10 T:4192 M:494219264   DEBUG: CPlayerSelectionRule::GetPlayers: considering rule: lastfm/shout
  437. 11:12:10 T:4192 M:494219264   DEBUG: CPlayerSelectionRule::GetPlayers: considering rule: rtsp
  438. 11:12:10 T:4192 M:494219264   DEBUG: CPlayerSelectionRule::GetPlayers: considering rule: streams
  439. 11:12:10 T:4192 M:494219264   DEBUG: CPlayerSelectionRule::GetPlayers: considering rule: dvd
  440. 11:12:10 T:4192 M:494219264   DEBUG: CPlayerSelectionRule::GetPlayers: considering rule: dvdfile
  441. 11:12:10 T:4192 M:494219264   DEBUG: CPlayerSelectionRule::GetPlayers: considering rule: dvdimage
  442. 11:12:10 T:4192 M:494219264   DEBUG: CPlayerSelectionRule::GetPlayers: considering rule: sdp/asf
  443. 11:12:10 T:4192 M:494219264   DEBUG: CPlayerSelectionRule::GetPlayers: considering rule: nsv
  444. 11:12:10 T:4192 M:494219264   DEBUG: CPlayerCoreFactory::GetPlayers: matched 0 rules with players
  445. 11:12:10 T:4192 M:494202880   DEBUG: CPlayerCoreFactory::GetPlayers: adding videodefaultplayer (1)
  446. 11:12:10 T:4192 M:494202880   DEBUG: CPlayerCoreFactory::GetPlayers: for video=1, audio=0
  447. 11:12:10 T:4192 M:494202880   DEBUG: CPlayerCoreFactory::GetPlayers: adding player: wmp (4)
  448. 11:12:10 T:4192 M:494202880   DEBUG: CPlayerCoreFactory::GetPlayers: for video=1, audio=1
  449. 11:12:10 T:4192 M:494202880   DEBUG: CPlayerCoreFactory::GetPlayers: adding player: DVDPlayer (1)
  450. 11:12:10 T:4192 M:494202880   DEBUG: CPlayerCoreFactory::GetPlayers: added 2 players
  451. 11:12:10 T:4192 M:492969984  NOTICE: DVDPlayer: Opening: G:\Media\Fotografije\Video\2010\20100606134939.m2ts
  452. 11:12:10 T:4192 M:492965888 WARNING: CDVDMessageQueue(player)::Put MSGQ_NOT_INITIALIZED
  453. 11:12:10 T:6060 M:492965888   DEBUG: thread start, auto delete: 0
  454. 11:12:10 T:6060 M:492961792  NOTICE: Creating InputStream
  455. 11:12:10 T:6060 M:492961792    INFO: CDVDFactorySubtitle::GetSubtitles, searching subtitles
  456. 11:12:10 T:6060 M:492957696   DEBUG: CUtil::CacheSubtitles: START
  457. 11:12:10 T:6060 M:492957696   DEBUG: CUtil::CacheSubtitles: Checking for common subdirs...
  458. 11:12:10 T:6060 M:492957696   DEBUG: CUtil::CacheSubtitles: Done (time: 1 ms)
  459. 11:12:10 T:6060 M:492957696   DEBUG: CUtil::CacheSubtitles: Searching for subtitles...
  460. 11:12:10 T:6060 M:492953600   DEBUG: CUtil::CacheSubtitles: Done (time: 3 ms)
  461. 11:12:10 T:6060 M:492953600   DEBUG: CUtil::CacheSubtitles: END (total time: 5 ms)
  462. 11:12:10 T:6060 M:492953600    INFO: CDVDFactorySubtitle::GetSubtitles, searching subtitles done
  463. 11:12:10 T:6060 M:492953600  NOTICE: Creating Demuxer
  464. 11:12:10 T:6060 M:492904448   DEBUG: CDVDDemuxFFmpeg::Open - probing detected format [mpegts]
  465. 11:12:10 T:6060 M:492597248   DEBUG: CDVDDemuxFFmpeg::Open - av_find_stream_info starting
  466. 11:12:11 T:4192 M:484388864   DEBUG: ------ Window Init (DialogBusy.xml) ------
  467. 11:12:11 T:4192 M:484388864   DEBUG: Alloc resources: 0.40ms (0.01 ms skin load)
  468. 11:12:11 T:6060 M:491327488   DEBUG: CDVDDemuxFFmpeg::Open - av_find_stream_info finished
  469. 11:12:11 T:6060 M:491409408    INFO: ffmpeg[17AC]: Input #0, mpegts, from 'G:\Media\Fotografije\Video\2010\20100606134939.m2ts':
  470. 11:12:11 T:6060 M:491327488    INFO: ffmpeg[17AC]:   Duration: 00:00:49.41, start: 1.000033, bitrate: 17187 kb/s
  471. 11:12:11 T:6060 M:491323392    INFO: ffmpeg[17AC]:   Program 1
  472. 11:12:11 T:6060 M:491401216    INFO: ffmpeg[17AC]:     Stream #0.0[0x1011]: Video: h264, yuv420p, 1920x1080 [PAR 1:1 DAR 16:9], 50 fps, 50 tbr, 90k tbn, 50 tbc
  473. 11:12:11 T:6060 M:491319296    INFO: ffmpeg[17AC]:     Stream #0.1[0x1100]: Audio: ac3, 48000 Hz, stereo, s16, 256 kb/s
  474. 11:12:11 T:6060 M:491413504    INFO: ffmpeg[17AC]:     Stream #0.2[0x1200]: Subtitle: pgssub
  475. 11:12:11 T:6060 M:491311104  NOTICE: Opening video stream: 0 source: 256
  476. 11:12:11 T:6060 M:491311104  NOTICE: Creating video codec with codec id: 28
  477. 11:12:11 T:6060 M:491307008   DEBUG: CDVDFactoryCodec: compiled in hardware support: CrystalHD:yes DXVA:yes
  478. 11:12:11 T:6060 M:491556864    INFO: Trying Broadcom Crystal HD Decoder...
  479. 11:12:11 T:6060 M:491307008   DEBUG: FactoryCodec - Video:  - Opening
  480. 11:12:11 T:6060 M:390909952   DEBUG: Win32DllLoader::Load(special://xbmcbin/system/players/dvdplayer/swscale-0.6.1.dll)
  481. 11:12:11 T:6060 M:390885376   DEBUG: CrystalHD: codec opened
  482. 11:12:11 T:6060 M:390885376    INFO: DVDVideoCodecCrystalHD: Opened Broadcom Crystal HD Codec
  483. 11:12:11 T:6060 M:390885376   DEBUG: FactoryCodec - Video: chd-h264 - Opened
  484. 11:12:11 T:4924 M:390885376   DEBUG: thread start, auto delete: 0
  485. 11:12:11 T:4924 M:390885376   DEBUG: CrystalHD: Output Thread Started...
  486. 11:12:11 T:4140 M:390885376   DEBUG: thread start, auto delete: 0
  487. 11:12:11 T:4140 M:390885376   DEBUG: CVideoReferenceClock: Setting up Direct3d
  488. 11:12:11 T:4140 M:390885376   DEBUG: CVideoReferenceClock: detected refreshrate: 60 hertz, assuming 60 hertz
  489. 11:12:11 T:6060 M:390885376  NOTICE: Creating video thread
  490. 11:12:11 T:6060 M:390885376  NOTICE: Opening audio stream: 1 source: 256
  491. 11:12:11 T:6060 M:390885376  NOTICE: Finding audio codec for: 86020
  492. 11:12:11 T:6060 M:390881280   DEBUG: FactoryCodec - Audio: liba52 - Opening
  493. 11:12:11 T:6060 M:390881280   DEBUG: Win32DllLoader::Load(special://xbmcbin/system/players/dvdplayer/liba52.dll)
  494. 11:12:11 T:6060 M:390819840   DEBUG: Win32DllLoader::Load(MSVCR71.dll)
  495. 11:12:11 T:6060 M:390807552   DEBUG: FactoryCodec - Audio: liba52 - Opened
  496. 11:12:11 T:6060 M:390803456  NOTICE: Creating audio thread
  497. 11:12:11 T:6060 M:390799360  NOTICE: Opening Subtitle stream: 2 source: 256
  498. 11:12:11 T:6060 M:390791168   DEBUG: FactoryCodec - Overlay: FFmpeg Subtitle Decoder - Opening
  499. 11:12:11 T:2348 M:390791168   DEBUG: thread start, auto delete: 0
  500. 11:12:11 T:6060 M:390782976   DEBUG: FactoryCodec - Overlay: FFmpeg Subtitle Decoder - Opened
  501. 11:12:11 T:6060 M:390782976   DEBUG: CEdl::ReadEditDecisionLists - Adjusting detected frame rate by half assuming 1080i (interlaced): 50.000
  502. 11:12:11 T:6060 M:390782976   DEBUG: CEdl::ReadEditDecisionLists - Checking for edit decision lists (EDL) on local drive or remote share for: G:\Media\Fotografije\Video\2010\20100606134939.m2ts
  503. 11:12:11 T:5768 M:390778880   DEBUG: thread start, auto delete: 0
  504. 11:12:11 T:5768 M:390774784  NOTICE: running thread: CDVDPlayerAudio::Process()
  505. 11:12:11 T:6060 M:390762496   DEBUG: CDVDPlayer::SetCaching - caching state 2
  506. 11:12:11 T:5768 M:390594560   DEBUG: CDVDPlayerAudio - CDVDMsg::GENERAL_RESYNC(39967.000000, 1)
  507. 11:12:11 T:5768 M:390184960  NOTICE: Creating audio device with codec id: 86020, channels: 2, sample rate: 48000, no pass-through
  508. 11:12:11 T:5768 M:390176768   DEBUG: CWin32WASAPI::Initialize: endpoint device SPDIF-Out (IDT High Definition Audio CODEC)
  509. 11:12:11 T:5768 M:390168576    INFO: CPCMRemap: Configured speaker layout: 2.0
  510. 11:12:11 T:5768 M:390168576    INFO: CPCMRemap: I channel map: FL,FR
  511. 11:12:11 T:5768 M:390168576    INFO: CPCMRemap: O channel map: FL,FR
  512. 11:12:11 T:5768 M:390135808   DEBUG: CPCMRemap: Downmix normalization is enabled
  513. 11:12:11 T:5768 M:390053888   DEBUG: CPCMRemap: FL = FL(1.000000*)
  514. 11:12:11 T:5768 M:390004736   DEBUG: CPCMRemap: FR = FR(1.000000*)
  515. 11:12:11 T:5768 M:389955584   DEBUG: CAudioContext::SetActiveDevice - SetActiveDevice from 1 to 0
  516. 11:12:11 T:5768 M:389918720   DEBUG: CAudioContext::RemoveActiveDevice - Removing device 1
  517. 11:12:11 T:2348 M:389292032  NOTICE: running thread: video_thread
  518. 11:12:11 T:2348 M:389599232   DEBUG: CDVDPlayerVideo - CDVDMsg::GENERAL_SYNCHRONIZE
  519. 11:12:11 T:2348 M:389648384   DEBUG: CDVDPlayerVideo - CDVDMsg::GENERAL_RESYNC(0.000000, 0)
  520. 11:12:11 T:4192 M:389603328   DEBUG: CAnnouncementManager - Announcement: PlaybackStarted from xbmc
  521. 11:12:11 T:4192 M:389570560   DEBUG: ------ Window Init (VideoOverlay.xml) ------
  522. 11:12:11 T:4192 M:389570560    INFO: Loading skin file: VideoOverlay.xml
  523. 11:12:11 T:4192 M:388575232   ERROR: Error evaluating boolean expression ![Player.HasContent(musicvideos) | Player.Content(episodes)]
  524. 11:12:11 T:4192 M:388493312 WARNING: Skin has invalid include: transition1
  525. 11:12:11 T:4192 M:387964928 WARNING: Previous line repeats 2 times.
  526. 11:12:11 T:4192 M:387964928   DEBUG: Load VideoOverlay.xml: 5.85ms
  527. 11:12:11 T:4192 M:387948544   DEBUG: Alloc resources: 5.94ms (5.94 ms skin load)
  528. 11:12:11 T:4192 M:386600960   DEBUG: CGUIInfoManager::SetCurrentMovie(G:\Media\Fotografije\Video\2010\20100606134939.m2ts)
  529. 11:12:11 T:4192 M:386043904   DEBUG: CVideoDatabase::GetMovieId (G:\Media\Fotografije\Video\2010\20100606134939.m2ts), query = select idMovie from movie where idFile=1123
  530. 11:12:11 T:4192 M:385925120   DEBUG: CVideoDatabase::GetEpisodeId (G:\Media\Fotografije\Video\2010\20100606134939.m2ts), query = select idEpisode from episode where idFile=1123
  531. 11:12:11 T:4192 M:386519040   DEBUG: CVideoDatabase::GetMusicVideoId (G:\Media\Fotografije\Video\2010\20100606134939.m2ts), query = select idMVideo from musicvideo where idFile=1123
  532. 11:12:11 T:5768 M:374935552   DEBUG: CWin32WASAPI::Initialize: Packet Size = 2048. Avg Bytes Per Second = 192000.
  533. 11:12:11 T:5768 M:374935552   DEBUG: CWin32WASAPI::Initialize - Channels: 2 - SampleRate: 48000 - SampleBit: 16 - Resample false - IsMusic false - IsPassthrough false - audioDevice: SPDIF-Out (IDT High Definition Audio CODEC)
  534. 11:12:11 T:5768 M:374935552   DEBUG: CDVDPlayerAudio:: synctype set to 0: clock feedback
  535. 11:12:11 T:6060 M:374419456   DEBUG: CDVDPlayer::HandleMessages - player started 1
  536. 11:12:11 T:4924 M:369680384   DEBUG: CrystalHD: Format Change Detected. Flags: 0x00030000
  537. 11:12:11 T:4924 M:369680384   DEBUG: ----------------------------------
  538. 11:12:11 T:4924 M:369680384   DEBUG:    TimeStamp: 0
  539. 11:12:11 T:4924 M:369680384   DEBUG:    Picture Number: 0
  540. 11:12:11 T:4924 M:369680384   DEBUG:    Width: 1920
  541. 11:12:11 T:4924 M:369680384   DEBUG:    Height: 1080
  542. 11:12:11 T:4924 M:369680384   DEBUG:    Chroma: 0x420
  543. 11:12:11 T:4924 M:369680384   DEBUG:    Pulldown: 3
  544. 11:12:11 T:4924 M:369680384   DEBUG:    Flags: 0x00040028
  545. 11:12:11 T:4924 M:369680384   DEBUG:    Frame Rate/Res: 0
  546. 11:12:11 T:4924 M:369680384   DEBUG:    Aspect Ratio: 1
  547. 11:12:11 T:4924 M:369680384   DEBUG:    Color Primaries: 2
  548. 11:12:11 T:4924 M:369680384   DEBUG:    MetaData: 655616
  549. 11:12:11 T:4924 M:369680384   DEBUG:    Session Number: 0
  550. 11:12:11 T:4924 M:369680384   DEBUG:    TimeStamp: 0
  551. 11:12:11 T:4924 M:369680384   DEBUG:    Custom Aspect: 0
  552. 11:12:11 T:4924 M:369680384   DEBUG:    Frames to Drop: 0
  553. 11:12:11 T:4924 M:369680384   DEBUG:    H264 Valid Fields: 0x00000000
  554. 11:12:11 T:4924 M:369680384   DEBUG: CrystalHD: dec_par x = 1, dec_par y = 1
  555. 11:12:11 T:4924 M:369680384   DEBUG: CrystalHD: resolution = 0  interlace = 0
  556. 11:12:11 T:2348 M:366534656   DEBUG: Win32DllLoader::Load(special://xbmcbin/system/players/dvdplayer/postproc-51.dll)
  557. 11:12:11 T:4192 M:365400064   DEBUG: ------ Window Deinit (DialogBusy.xml) ------
  558. 11:12:11 T:2348 M:356847616  NOTICE:  fps: 50.000000, pwidth: 1920, pheight: 1080, dwidth: 1920, dheight: 1080
  559. 11:12:11 T:2348 M:356847616   DEBUG: CDVDPlayerVideo::OutputPicture - change configuration. 1920x1080. framerate: 50.00. format: YV12
  560. 11:12:11 T:2348 M:356847616  NOTICE: Display resolution ADJUST : 1920x1080 @ 50.00 - Full Screen (30)
  561. 11:12:11 T:2348 M:356847616   DEBUG: CWinRenderer::SelectRenderMethod: Requested render method: 3
  562. 11:12:11 T:2348 M:356847616   DEBUG: CWinRenderer::SelectRenderMethod: Selected render method 2: Software
  563. 11:12:11 T:6060 M:356802560   DEBUG: CDVDPlayer::HandleMessages - player started 2
  564. 11:12:11 T:6060 M:356802560   DEBUG: CDVDPlayer::SetCaching - caching state 3
  565. 11:12:11 T:5768 M:356802560   DEBUG: CDVDPlayerAudio:: synctype set to 1: skip/duplicate
  566. 11:12:11 T:6060 M:356798464   DEBUG: CDVDPlayer::SetCaching - caching state 0
  567. 11:12:11 T:5768 M:356798464   DEBUG: CDVDPlayerAudio:: Discontinuity - was:39967.000000, should be:39967.000000, error:0.000000
  568. 11:12:11 T:4192 M:356798464   DEBUG: Activating window ID: 12005
  569. 11:12:11 T:4192 M:356798464   DEBUG: Checking if window ID 12005 is locked.
  570. 11:12:11 T:4192 M:356798464   DEBUG: ------ Window Deinit (MyVideo.xml) ------
  571. 11:12:11 T:4192 M:356794368   DEBUG: ------ Window Init (VideoFullScreen.xml) ------
  572. 11:12:11 T:4192 M:356794368    INFO: Loading skin file: VideoFullScreen.xml
  573. 11:12:11 T:4192 M:356790272   DEBUG: Load VideoFullScreen.xml: 1.69ms
  574. 11:12:11 T:4192 M:356790272   DEBUG: Alloc resources: 1.76ms (1.76 ms skin load)
  575. 11:12:11 T:4192 M:356790272    INFO: Loading skin file: VideoOSD.xml
  576. 11:12:11 T:4192 M:356782080   DEBUG: Load VideoOSD.xml: 6.33ms
  577. 11:12:11 T:4192 M:355553280   DEBUG: Alloc resources: 8.81ms (0.00 ms skin load)
  578. 11:12:11 T:4192 M:355553280    INFO: Loading skin file: VideoOSDSettings.xml
  579. 11:12:11 T:4192 M:355540992   DEBUG: Load VideoOSDSettings.xml: 3.65ms
  580. 11:12:11 T:4192 M:353087488   DEBUG: Alloc resources: 13.95ms (0.01 ms skin load)
  581. 11:12:11 T:4192 M:353087488    INFO: Loading skin file: VideoOSDSettings.xml
  582. 11:12:11 T:4192 M:353087488   DEBUG: Load VideoOSDSettings.xml: 2.59ms
  583. 11:12:11 T:4192 M:353087488   DEBUG: Alloc resources: 0.21ms (0.00 ms skin load)
  584. 11:12:11 T:4192 M:353087488    INFO: Loading skin file: DialogFullScreenInfo.xml
  585. 11:12:11 T:4192 M:353079296   DEBUG: Load DialogFullScreenInfo.xml: 9.54ms
  586. 11:12:11 T:4192 M:352014336   DEBUG: Alloc resources: 37.54ms (0.00 ms skin load)
  587. 11:12:11 T:4192 M:351981568   DEBUG: ------ Window Deinit (VideoOverlay.xml) ------
  588. 11:12:11 T:4192 M:346832896   DEBUG: created yv12 texture 0
  589. 11:12:11 T:4192 M:343691264   DEBUG: created yv12 texture 1
  590. 11:12:12 T:5768 M:360448000   DEBUG: CDVDPlayerAudio:: Duplicating 1 packet(s) of 32.00 ms duration
  591. 11:12:13 T:2348 M:360726528   DEBUG: CPullupCorrection: detected pattern of length 1: 40000.00
  592. 11:12:14 T:2348 M:387571712   DEBUG: CDVDPlayerVideo::CalcFrameRate framerate was:50.000000 calculated:25.000000
  593. 11:12:14 T:2348 M:387571712  NOTICE:  fps: 25.000000, pwidth: 1920, pheight: 1080, dwidth: 1920, dheight: 1080
  594. 11:12:14 T:2348 M:387571712   DEBUG: CDVDPlayerVideo::OutputPicture - change configuration. 1920x1080. framerate: 25.00. format: YV12
  595. 11:12:14 T:2348 M:387571712  NOTICE: Display resolution ADJUST : 1920x1080 @ 50.00 - Full Screen (30)
  596. 11:12:14 T:2348 M:387571712   DEBUG: CWinRenderer::SelectRenderMethod: Requested render method: 3
  597. 11:12:14 T:2348 M:387571712   DEBUG: CWinRenderer::SelectRenderMethod: Selected render method 2: Software
  598. 11:12:19 T:4192 M:387186688    INFO: XCURL::DllLibCurlGlobal::CheckIdle - Closing session to http://xoap.weather.com (easy=01FB73B8, multi=003873C0)
  599. 11:12:23 T:2348 M:386895872   DEBUG: CPullupCorrection: detected pattern of length 1: 40000.00
  600. 11:12:27 T:5768 M:387141632   DEBUG: CDVDPlayerAudio:: Skipping 1 packet(s) of 32.00 ms duration
  601. 11:12:28 T:2348 M:387284992   DEBUG: CPullupCorrection: detected pattern of length 1: 40000.00
  602. 11:12:35 T:4620 M:388059136   DEBUG: Previous line repeats 1 times.
  603. 11:12:35 T:4620 M:388059136   DEBUG: Thread 4620 terminating (autodelete)
  604. 11:12:35 T:2348 M:387641344   DEBUG: CPullupCorrection: detected pattern of length 1: 40000.00
  605. 11:12:35 T:4192 M:387579904   DEBUG: SECTION:UnloadDelayed(DLL: special://xbmcbin/system/ImageLib.dll)
  606. 11:12:35 T:4192 M:387588096   DEBUG: Win32DllLoader::Unload ImageLib.dll
  607. 11:12:40 T:2348 M:388308992   DEBUG: CPullupCorrection: detected pattern of length 1: 40000.00
  608. 11:12:43 T:5768 M:387735552   DEBUG: CDVDPlayerAudio:: Skipping 1 packet(s) of 32.00 ms duration
  609. 11:12:44 T:2348 M:389259264   DEBUG: CPullupCorrection: detected pattern of length 1: 40000.00
  610. 11:12:59 T:5768 M:405073920   DEBUG: Previous line repeats 3 times.
  611. 11:12:59 T:5768 M:405073920   DEBUG: CDVDPlayerAudio:: Skipping 1 packet(s) of 32.00 ms duration
  612. 11:13:00 T:2348 M:407490560 WARNING: CDVDMessageQueue(video)::Get - asked for new data packet, with nothing available
  613. 11:13:00 T:5768 M:401686528   DEBUG: CDVDPlayerAudio - CDVDMsg::GENERAL_EOF
  614. 11:13:00 T:5768 M:401686528 WARNING: CDVDMessageQueue(audio)::Get - asked for new data packet, with nothing available
  615. 11:13:00 T:2348 M:401670144    INFO: CDVDPlayerVideo - Stillframe detected, switching to forced 25.000000 fps
  616. 11:13:00 T:2348 M:401670144   DEBUG: CPullupCorrection: pattern lost
  617. 11:13:00 T:6060 M:401670144  NOTICE: CDVDPlayer::OnExit()
  618. 11:13:00 T:6060 M:401670144  NOTICE: DVDPlayer: eof, waiting for queues to empty
  619. 11:13:00 T:6060 M:401670144  NOTICE: DVDPlayer: closing audio stream
  620. 11:13:00 T:6060 M:401670144  NOTICE: Closing audio stream
  621. 11:13:00 T:6060 M:401670144  NOTICE: CDVDMessageQueue(audio)::WaitUntilEmpty
  622. 11:13:00 T:6060 M:401670144  NOTICE: Waiting for audio thread to exit
  623. 11:13:00 T:5768 M:401670144   DEBUG: CDVDPlayerAudio - CDVDMsg::GENERAL_SYNCHRONIZE
  624. 11:13:00 T:5768 M:401670144  NOTICE: thread end: CDVDPlayerAudio::OnExit()
  625. 11:13:00 T:5768 M:401670144   DEBUG: Thread 5768 terminating
  626. 11:13:00 T:6060 M:401686528  NOTICE: Closing audio device
  627. 11:13:01 T:6060 M:401690624   DEBUG: CWin32WASAPI::Deinitialize: Cleaning up
  628. 11:13:01 T:6060 M:401715200   DEBUG: CAudioContext::SetActiveDevice - SetActiveDevice from 0 to 2
  629. 11:13:01 T:6060 M:401715200   DEBUG: CAudioContext::RemoveActiveDevice - Removing device 0
  630. 11:13:01 T:6060 M:401707008   DEBUG: CWDSound::direct_sound_enumerator_member_callback - found Device: Primary Sound Driver
  631. 11:13:01 T:6060 M:401707008   DEBUG: CWDSound::direct_sound_enumerator_member_callback - found Device: SPDIF-Out (IDT High Definition Audio CODEC)
  632. 11:13:01 T:6060 M:401707008   DEBUG: CWDSound::direct_sound_enumerator_member_callback - found Device: Speakers / HP (IDT High Definition Audio CODEC)
  633. 11:13:01 T:6060 M:401707008   DEBUG: CAudioContext::SetActiveDevice - selecting SPDIF-Out (IDT High Definition Audio CODEC) as output devices
  634. 11:13:01 T:6060 M:401334272  NOTICE: Deleting audio codec
  635. 11:13:01 T:6060 M:401334272  NOTICE: DVDPlayer: closing video stream
  636. 11:13:01 T:6060 M:401334272  NOTICE: Closing video stream
  637. 11:13:01 T:6060 M:401334272  NOTICE: CDVDMessageQueue(video)::WaitUntilEmpty
  638. 11:13:01 T:2348 M:401334272   DEBUG: CDVDPlayerVideo - CDVDMsg::GENERAL_SYNCHRONIZE
  639. 11:13:01 T:6060 M:401334272  NOTICE: waiting for video thread to exit
  640. 11:13:01 T:2348 M:401334272   ERROR: Got MSGQ_ABORT or MSGO_IS_ERROR return true
  641. 11:13:01 T:2348 M:411013120  NOTICE: thread end: video_thread
  642. 11:13:01 T:2348 M:411013120   DEBUG: Thread 2348 terminating
  643. 11:13:01 T:6060 M:411029504  NOTICE: deleting video codec
  644. 11:13:01 T:4924 M:411029504   DEBUG: CrystalHD: Output Thread Stopped...
  645. 11:13:01 T:4924 M:411029504   DEBUG: Thread 4924 terminating
  646. 11:13:01 T:6060 M:424161280   DEBUG: CrystalHD: codec closed
  647. 11:13:01 T:6060 M:424165376  NOTICE: DVDPlayer: closing video stream
  648. 11:13:01 T:6060 M:424165376  NOTICE: Closing subtitle stream
  649. 11:13:01 T:6060 M:424165376  NOTICE: CDVDPlayer::OnExit() deleting demuxer
  650. 11:13:01 T:6060 M:424202240  NOTICE: CDVDPlayer::OnExit() deleting input stream
  651. 11:13:01 T:6060 M:424202240   DEBUG: CAnnouncementManager - Announcement: PlaybackEnded from xbmc
  652. 11:13:01 T:6060 M:424202240   DEBUG: Thread 6060 terminating
  653. 11:13:01 T:4192 M:424255488   DEBUG: CGUIWindowManager::PreviousWindow: Deactivate
  654. 11:13:01 T:4192 M:424255488   DEBUG: ------ Window Deinit (VideoFullScreen.xml) ------
  655. 11:13:01 T:4192 M:424247296   DEBUG: CGUIWindowManager::PreviousWindow: Activate new
  656. 11:13:01 T:4192 M:424222720   DEBUG: ------ Window Init (MyVideo.xml) ------
  657. 11:13:01 T:4192 M:424222720    INFO: Loading skin file: MyVideo.xml
  658. 11:13:01 T:4192 M:424218624 WARNING: Skin has invalid include: pageContextMenu
  659. 11:13:01 T:4192 M:424226816 WARNING: Skin has invalid include: amtIgnore
  660. 11:13:01 T:4192 M:424226816 WARNING: Previous line repeats 2 times.
  661. 11:13:01 T:4192 M:424226816 WARNING: Skin has invalid include: amtAllow
  662. 11:13:01 T:4192 M:424226816 WARNING: Previous line repeats 2 times.
  663. 11:13:01 T:4192 M:424226816 WARNING: Skin has invalid include: amtIgnore
  664. 11:13:01 T:4192 M:424226816 WARNING: Previous line repeats 2 times.
  665. 11:13:01 T:4192 M:424226816 WARNING: Skin has invalid include: amtAllow
  666. 11:13:01 T:4192 M:424226816 WARNING: Previous line repeats 2 times.
  667. 11:13:01 T:4192 M:424226816 WARNING: Skin has invalid include: amtIgnore
  668. 11:13:01 T:4192 M:424226816 WARNING: Previous line repeats 2 times.
  669. 11:13:01 T:4192 M:424226816 WARNING: Skin has invalid include: amtAllow
  670. 11:13:01 T:4192 M:424181760 WARNING: Previous line repeats 2 times.
  671. 11:13:01 T:4192 M:424181760   DEBUG: Load MyVideo.xml: 60.30ms
  672. 11:13:01 T:4192 M:423145472   DEBUG: Alloc resources: 64.04ms (60.49 ms skin load)
  673. 11:13:01 T:4192 M:423145472   DEBUG: CGUIMediaWindow::GetDirectory (G:\Media\Fotografije\Video\2010\)
  674. 11:13:01 T:4192 M:423145472   DEBUG:   ParentPath = [G:\Media\Fotografije\Video\2010\]
  675. 11:13:01 T:4516 M:423088128   DEBUG: thread start, auto delete: 0
  676. 11:13:01 T:5420 M:423088128   DEBUG: thread start, auto delete: 1
  677. 11:13:01 T:5420 M:423088128   DEBUG: CSaveFileStateJob::DoWork - Saving file state for video item G:\Media\Fotografije\Video\2010\20100606134939.m2ts
  678. 11:13:01 T:5420 M:423088128   DEBUG: CSaveFileStateJob::DoWork - Marking video item G:\Media\Fotografije\Video\2010\20100606134939.m2ts as watched
  679. 11:13:01 T:4332 M:423067648   DEBUG: thread start, auto delete: 1
  680. 11:13:01 T:4332 M:423067648   DEBUG: Win32DllLoader::Load(special://xbmcbin/system/ImageLib.dll)
  681. 11:13:01 T:4192 M:426356736  NOTICE: CDVDPlayer::CloseFile()
  682. 11:13:01 T:4192 M:426356736 WARNING: CDVDMessageQueue(player)::Put MSGQ_NOT_INITIALIZED
  683. 11:13:01 T:4192 M:426356736  NOTICE: DVDPlayer: waiting for threads to exit
  684. 11:13:01 T:4192 M:426356736  NOTICE: DVDPlayer: finished waiting
  685. 11:13:01 T:4140 M:432205824   DEBUG: CVideoReferenceClock: Cleaning up Direct3d
  686. 11:13:01 T:4140 M:432205824   DEBUG: Thread 4140 terminating
  687. 11:13:01 T:4612 M:432197632   DEBUG: thread start, auto delete: 1
  688. 11:13:01 T:4332 M:430526464   DEBUG: CImageLoader::DoWork - took 163 ms to load special://skin/backgrounds/library/moviesNoFanart.png
  689. 11:13:01 T:4612 M:431607808   DEBUG: CImageLoader::DoWork - took 173 ms to load special://skin/backgrounds/background.png
  690. 11:13:02 T:4192 M:433508352   DEBUG: Saving fileitems [G:\Media\Fotografije\Video\2010\]
  691. 11:13:02 T:4192 M:433508352   DEBUG:   -- items: 11, sort method: 2, ascending: true
  692. 11:13:02 T:4516 M:433418240   DEBUG: Thread 4516 terminating
  693. 11:13:02 T:4192 M:433430528   DEBUG: CGUIMediaWindow::GetDirectory (G:\Media\Fotografije\Video\2010\)
  694. 11:13:02 T:4192 M:433430528   DEBUG:   ParentPath = [G:\Media\Fotografije\Video\2010\]
  695. 11:13:02 T:2908 M:433430528   DEBUG: thread start, auto delete: 0
  696. 11:13:02 T:2908 M:432222208   DEBUG: Thread 2908 terminating
  697. 11:13:07 T:4192 M:434098176   DEBUG: CWinEventsWin32::WndProcWindow is active
  698. 11:13:07 T:4192 M:434098176   DEBUG: CWinEventsWin32::WndProcWindow lost focus
  699. 11:13:07 T:5420 M:433647616   DEBUG: Thread 5420 terminating (autodelete)
  700. 11:13:07 T:4612 M:433647616   DEBUG: Thread 4612 terminating (autodelete)
  701. 11:13:07 T:4332 M:433647616   DEBUG: Thread 4332 terminating (autodelete)
  702. 11:13:07 T:4192 M:433647616   DEBUG: CAnnouncementManager - Announcement: ApplicationStop from xbmc
  703. 11:13:07 T:4192 M:433647616  NOTICE: Storing total System Uptime
  704. 11:13:07 T:4192 M:433672192  NOTICE: Saving settings
  705. 11:13:07 T:4192 M:433442816  NOTICE: stop all
  706. 11:13:07 T:4192 M:433442816   DEBUG: CNetwork::NetworkMessage - Signaling network services to stop
  707. 11:13:07 T:4192 M:433442816  NOTICE: ES: Stopping event server
  708. 11:13:07 T:4192 M:433438720   DEBUG: CNetwork::NetworkMessage - Waiting for network services to stop
  709. 11:13:07 T:220 M:433508352   DEBUG: FreeLibrary(secur32.dll) -> 0233E6F0
  710. 11:13:07 T:220 M:433508352   DEBUG: Win32DllLoader::Unload secur32.dll
  711. 11:13:07 T:220 M:433524736   DEBUG: CLastfmScrobbler: Thread ended.
  712. 11:13:07 T:220 M:433524736   DEBUG: Thread 220 terminating
  713. 11:13:08 T:4164 M:433283072  NOTICE: ES: UDP Event server stopped
  714. 11:13:08 T:2024 M:433283072   DEBUG: Thread 2024 terminating
  715. 11:13:08 T:4164 M:433283072   DEBUG: Thread 4164 terminating
  716. 11:13:08 T:4192 M:433283072  NOTICE: stop sap announcement listener
  717. 11:13:08 T:4192 M:433315840  NOTICE: clean cached files!
  718. 11:13:08 T:4192 M:433307648  NOTICE: unload skin
  719. 11:13:08 T:4192 M:433307648   DEBUG: ------ Window Deinit (MyVideo.xml) ------
  720. 11:13:08 T:4192 M:433307648   DEBUG: ------ Window Deinit (Pointer.xml) ------
  721. 11:13:08 T:4192 M:433307648   DEBUG: ------ Window Deinit (DialogMuteBug.xml) ------
  722. 11:13:08 T:4192 M:547901440    INFO: CrystalHD: device closed
  723. 11:13:08 T:4192 M:547901440  NOTICE: stop python
  724. 11:13:08 T:4192 M:562663424  NOTICE: stopped
  725. 11:13:08 T:4192 M:562663424  NOTICE: destroy
  726. 11:13:08 T:4192 M:562659328   DEBUG: ADDON: cpluff: 'Plug-in skin.refocus has been uninstalled.'
  727. 11:13:08 T:4192 M:562814976   DEBUG: ADDON: cpluff: 'Plug-in script.xbmc.subtitles has been uninstalled.'
  728. 11:13:08 T:4192 M:562659328   DEBUG: ADDON: cpluff: 'Plug-in metadata.albums.allmusic.com has been uninstalled.'
  729. 11:13:08 T:4192 M:562659328   DEBUG: ADDON: cpluff: 'Plug-in plugin.audio.shoutcast has been uninstalled.'
  730. 11:13:08 T:4192 M:562659328   DEBUG: ADDON: cpluff: 'Plug-in repository.xbmc.org has been uninstalled.'
  731. 11:13:08 T:4192 M:562659328   DEBUG: ADDON: cpluff: 'Plug-in screensaver.rsxs.euphoria has been uninstalled.'
  732. 11:13:08 T:4192 M:562659328   DEBUG: ADDON: cpluff: 'Plug-in screensaver.xbmc.builtin.black has been uninstalled.'
  733. 11:13:08 T:4192 M:562659328   DEBUG: ADDON: cpluff: 'Plug-in visualization.projectm has been uninstalled.'
  734. 11:13:08 T:4192 M:562659328   DEBUG: ADDON: cpluff: 'Plug-in screensaver.xbmc.builtin.dim has been uninstalled.'
  735. 11:13:08 T:4192 M:562659328   DEBUG: ADDON: cpluff: 'Plug-in metadata.artists.allmusic.com has been uninstalled.'
  736. 11:13:08 T:4192 M:562659328   DEBUG: ADDON: cpluff: 'Plug-in metadata.themoviedb.org has been uninstalled.'
  737. 11:13:08 T:4192 M:562659328   DEBUG: ADDON: cpluff: 'Plug-in xbmc.metadata has been uninstalled.'
  738. 11:13:08 T:4192 M:562659328   DEBUG: ADDON: cpluff: 'Plug-in skin.back-row has been uninstalled.'
  739. 11:13:08 T:4192 M:562659328   DEBUG: ADDON: cpluff: 'Plug-in skin.confluence has been uninstalled.'
  740. 11:13:08 T:4192 M:562659328   DEBUG: ADDON: cpluff: 'Plug-in metadata.artists.last.fm has been uninstalled.'
  741. 11:13:08 T:4192 M:562659328   DEBUG: ADDON: cpluff: 'Plug-in script.cu.lyrics has been uninstalled.'
  742. 11:13:08 T:4192 M:562659328   DEBUG: ADDON: cpluff: 'Plug-in visualization.glspectrum has been uninstalled.'
  743. 11:13:08 T:4192 M:562659328   DEBUG: ADDON: cpluff: 'Plug-in script.module.pil has been uninstalled.'
  744. 11:13:08 T:4192 M:562659328   DEBUG: ADDON: cpluff: 'Plug-in visualization.milkdrop has been uninstalled.'
  745. 11:13:08 T:4192 M:562659328   DEBUG: ADDON: cpluff: 'Plug-in xbmc.gui has been uninstalled.'
  746. 11:13:08 T:4192 M:562659328   DEBUG: ADDON: cpluff: 'Plug-in metadata.last.fm has been uninstalled.'
  747. 11:13:08 T:4192 M:562659328   DEBUG: ADDON: cpluff: 'Plug-in visualization.dxspectrum has been uninstalled.'
  748. 11:13:08 T:4192 M:562659328   DEBUG: ADDON: cpluff: 'Plug-in metadata.common.impa.com has been uninstalled.'
  749. 11:13:08 T:4192 M:562659328   DEBUG: ADDON: cpluff: 'Plug-in xbmc.core has been uninstalled.'
  750. 11:13:08 T:4192 M:562659328   DEBUG: ADDON: cpluff: 'Plug-in metadata.albums.last.fm has been uninstalled.'
  751. 11:13:08 T:4192 M:562659328   DEBUG: ADDON: cpluff: 'Plug-in plugin.video.youtube has been uninstalled.'
  752. 11:13:08 T:4192 M:562659328   DEBUG: ADDON: cpluff: 'Plug-in script.recentlyadded has been uninstalled.'
  753. 11:13:08 T:4192 M:562778112   DEBUG: ADDON: cpluff: 'Plug-in plugin.audio.ListenLiveEU has been uninstalled.'
  754. 11:13:08 T:4192 M:562675712   DEBUG: ADDON: cpluff: 'Plug-in screensaver.xbmc.builtin.slideshow has been uninstalled.'
  755. 11:13:08 T:4192 M:562659328   DEBUG: ADDON: cpluff: 'Plug-in metadata.common.movieposterdb.com has been uninstalled.'
  756. 11:13:08 T:4192 M:562659328   DEBUG: ADDON: cpluff: 'Plug-in script.cdartmanager has been uninstalled.'
  757. 11:13:08 T:4192 M:562659328   DEBUG: ADDON: cpluff: 'Plug-in metadata.common.htbackdrops.com has been uninstalled.'
  758. 11:13:08 T:4192 M:562659328   DEBUG: ADDON: cpluff: 'Plug-in metadata.imdb.com has been uninstalled.'
  759. 11:13:08 T:4192 M:562659328   DEBUG: ADDON: cpluff: 'Plug-in metadata.allmusic.com has been uninstalled.'
  760. 11:13:08 T:4192 M:562659328   DEBUG: ADDON: cpluff: 'Plug-in metadata.common.allmusic.com has been uninstalled.'
  761. 11:13:08 T:4192 M:562659328   DEBUG: ADDON: cpluff: 'Plug-in metadata.tvdb.com has been uninstalled.'
  762. 11:13:08 T:4192 M:562659328   DEBUG: ADDON: cpluff: 'Plug-in metadata.artists.1ting.com has been uninstalled.'
  763. 11:13:08 T:4192 M:562659328   DEBUG: ADDON: cpluff: 'Plug-in plugin.video.apple.movie.trailers.lite has been uninstalled.'
  764. 11:13:08 T:4192 M:562659328   DEBUG: ADDON: cpluff: 'Plug-in weather.xbmc.builtin has been uninstalled.'
  765. 11:13:08 T:4192 M:562659328   DEBUG: ADDON: cpluff: 'Plug-in metadata.common.last.fm has been uninstalled.'
  766. 11:13:08 T:4192 M:562659328   DEBUG: ADDON: cpluff: 'Plug-in metadata.common.dtrailer.com has been uninstalled.'
  767. 11:13:08 T:4192 M:562659328   DEBUG: ADDON: cpluff: 'Plug-in metadata.common.themoviedb.org has been uninstalled.'
  768. 11:13:08 T:4192 M:562659328   DEBUG: ADDON: cpluff: 'Plug-in metadata.common.imdb.com has been uninstalled.'
  769. 11:13:08 T:4192 M:562659328   DEBUG: ADDON: cpluff: 'Plug-in xbmc.python has been uninstalled.'
  770. 11:13:08 T:4192 M:562659328   DEBUG: ADDON: cpluff: 'Plug-in screensaver.rsxs.plasma has been uninstalled.'
  771. 11:13:08 T:4192 M:562659328   DEBUG: ADDON: cpluff: 'Plug-in skin.transparency has been uninstalled.'
  772. 11:13:08 T:4192 M:562659328   DEBUG: ADDON: cpluff: 'Plug-in visualization.waveform has been uninstalled.'
  773. 11:13:08 T:4192 M:562659328   DEBUG: ADDON: cpluff: 'Plug-in xbmc.addon has been uninstalled.'
  774. 11:13:08 T:4192 M:562659328   DEBUG: ADDON: cpluff: 'Plug-in metadata.mtv.com has been uninstalled.'
  775. 11:13:08 T:4192 M:562659328   DEBUG: ADDON: cpluff: 'Plug-in script.module.pysqlite has been uninstalled.'
  776. 11:13:08 T:4192 M:562659328   DEBUG: ADDON: cpluff: 'Plug-in metadata.common.hdtrailers.net has been uninstalled.'
  777. 11:13:08 T:4192 M:562659328   DEBUG: ADDON: cpluff: 'Plug-in skin.mediastream_redux has been uninstalled.'
  778. 11:13:08 T:4192 M:562659328   DEBUG: ADDON: cpluff: 'Plug-in visualization.itunes has been uninstalled.'
  779. 11:13:08 T:4192 M:562659328    INFO: ADDON: cpluff: 'An unreleased information object was encountered at address 0369A208 with reference count 1 when destroying the associated plug-in context. Not releasing the object.'
  780. 11:13:08 T:4192 M:562659328    INFO: ADDON: cpluff: 'An unreleased information object was encountered at address 036778C8 with reference count 1 when destroying the associated plug-in context. Not releasing the object.'
  781. 11:13:08 T:4192 M:562659328    INFO: ADDON: cpluff: 'An unreleased information object was encountered at address 03677D90 with reference count 1 when destroying the associated plug-in context. Not releasing the object.'
  782. 11:13:08 T:4192 M:562659328    INFO: ADDON: cpluff: 'An unreleased information object was encountered at address 03677B50 with reference count 1 when destroying the associated plug-in context. Not releasing the object.'
  783. 11:13:08 T:4192 M:562659328    INFO: ADDON: cpluff: 'An unreleased information object was encountered at address 03677DD8 with reference count 1 when destroying the associated plug-in context. Not releasing the object.'
  784. 11:13:08 T:4192 M:562860032    INFO: ADDON: cpluff: 'An unreleased information object was encountered at address 03677958 with reference count 1 when destroying the associated plug-in context. Not releasing the object.'
  785. 11:13:08 T:4192 M:562655232    INFO: ADDON: cpluff: 'An unreleased information object was encountered at address 0369A2E0 with reference count 1 when destroying the associated plug-in context. Not releasing the object.'
  786. 11:13:08 T:4192 M:562655232    INFO: ADDON: cpluff: 'An unreleased information object was encountered at address 036779A0 with reference count 1 when destroying the associated plug-in context. Not releasing the object.'
  787. 11:13:08 T:4192 M:562655232    INFO: ADDON: cpluff: 'An unreleased information object was encountered at address 03677E68 with reference count 1 when destroying the associated plug-in context. Not releasing the object.'
  788. 11:13:08 T:4192 M:562655232    INFO: ADDON: cpluff: 'An unreleased information object was encountered at address 03677C28 with reference count 1 when destroying the associated plug-in context. Not releasing the object.'
  789. 11:13:08 T:4192 M:562655232    INFO: ADDON: cpluff: 'An unreleased information object was encountered at address 036779E8 with reference count 1 when destroying the associated plug-in context. Not releasing the object.'
  790. 11:13:08 T:4192 M:562655232    INFO: ADDON: cpluff: 'An unreleased information object was encountered at address 0369A838 with reference count 1 when destroying the associated plug-in context. Not releasing the object.'
  791. 11:13:08 T:4192 M:562655232    INFO: ADDON: cpluff: 'An unreleased information object was encountered at address 03677A78 with reference count 1 when destroying the associated plug-in context. Not releasing the object.'
  792. 11:13:08 T:4192 M:562655232  NOTICE: unload sections
  793. 11:13:08 T:4192 M:562954240   DEBUG: SECTION:UnloadAll(DLL: C:\Program Files\Broadcom\Broadcom CrystalHD Decoder\bcmDIL.dll)
  794. 11:13:08 T:4192 M:562954240   DEBUG: Win32DllLoader::Unload C:\Program Files\Broadcom\Broadcom CrystalHD Decoder\bcmDIL.dll
  795. 11:13:08 T:4192 M:563269632   DEBUG: SECTION:UnloadAll(DLL: special://xbmcbin/system/cpluff.dll)
  796. 11:13:08 T:4192 M:563269632   DEBUG: Win32DllLoader::Unload cpluff.dll
  797. 11:13:08 T:4192 M:563269632   DEBUG: FreeLibrary(libexpat.dll) -> 0233E290
  798. 11:13:08 T:4192 M:563269632   DEBUG: Win32DllLoader::Unload libexpat.dll
  799. 11:13:08 T:4192 M:563441664   DEBUG: SECTION:UnloadAll(DLL: special://xbmcbin/system/libcurl.dll)
  800. 11:13:08 T:4192 M:563441664   DEBUG: Win32DllLoader::Unload libcurl.dll
  801. 11:13:08 T:4192 M:563441664   DEBUG: FreeLibrary(libidn-11.dll) -> 0360FC60
  802. 11:13:08 T:4192 M:563441664   DEBUG: Win32DllLoader::Unload libidn-11.dll
  803. 11:13:08 T:4192 M:563441664   DEBUG: FreeLibrary(libeay32.dll) -> 03610610
  804. 11:13:08 T:4192 M:563441664   DEBUG: FreeLibrary(libssl32.dll) -> 036119C0
  805. 11:13:08 T:4192 M:563441664   DEBUG: Win32DllLoader::Unload libssl32.dll
  806. 11:13:08 T:4192 M:563441664   DEBUG: FreeLibrary(libeay32.dll) -> 03610610
  807. 11:13:08 T:4192 M:563441664   DEBUG: Win32DllLoader::Unload libeay32.dll
  808. 11:13:08 T:4192 M:564367360   DEBUG: SECTION:UnloadAll(DLL: special://xbmcbin/system/players/dvdplayer/avutil-50.dll)
  809. 11:13:08 T:4192 M:564367360   DEBUG: SECTION:UnloadAll(DLL: special://xbmcbin/system/players/dvdplayer/avcodec-52.dll)
  810. 11:13:08 T:4192 M:564367360   DEBUG: SECTION:UnloadAll(DLL: special://xbmcbin/system/players/dvdplayer/avformat-52.dll)
  811. 11:13:08 T:4192 M:564367360   DEBUG: Win32DllLoader::Unload avformat-52.dll
  812. 11:13:08 T:4192 M:564367360   DEBUG: FreeLibrary(avcodec-52.dll) -> 06C918B8
  813. 11:13:08 T:4192 M:564367360   DEBUG: Win32DllLoader::Unload avcodec-52.dll
  814. 11:13:08 T:4192 M:564367360   DEBUG: FreeLibrary(avutil-50.dll) -> 06C91AE8
  815. 11:13:08 T:4192 M:564367360   DEBUG: FreeLibrary(libfaad.dll) -> 06C92218
  816. 11:13:08 T:4192 M:564367360   DEBUG: Win32DllLoader::Unload libfaad.dll
  817. 11:13:08 T:4192 M:564367360   DEBUG: FreeLibrary(avutil-50.dll) -> 06C91AE8
  818. 11:13:08 T:4192 M:568696832   DEBUG: SECTION:UnloadAll(DLL: special://xbmcbin/system/players/dvdplayer/swscale-0.6.1.dll)
  819. 11:13:08 T:4192 M:568696832   DEBUG: Win32DllLoader::Unload swscale-0.6.1.dll
  820. 11:13:08 T:4192 M:568696832   DEBUG: FreeLibrary(avutil-50.dll) -> 06C91AE8
  821. 11:13:08 T:4192 M:568795136   DEBUG: SECTION:UnloadAll(DLL: special://xbmcbin/system/players/dvdplayer/liba52.dll)
  822. 11:13:08 T:4192 M:568795136   DEBUG: Win32DllLoader::Unload liba52.dll
  823. 11:13:08 T:4192 M:568795136   DEBUG: FreeLibrary(MSVCR71.dll) -> 06C97F10
  824. 11:13:08 T:4192 M:568795136   DEBUG: Win32DllLoader::Unload MSVCR71.dll
  825. 11:13:08 T:4192 M:568967168   DEBUG: SECTION:UnloadAll(DLL: special://xbmcbin/system/players/dvdplayer/postproc-51.dll)
  826. 11:13:08 T:4192 M:569151488   DEBUG: Win32DllLoader::Unload postproc-51.dll
  827. 11:13:08 T:4192 M:569077760   DEBUG: FreeLibrary(avutil-50.dll) -> 06C91AE8
  828. 11:13:08 T:4192 M:568967168   DEBUG: Win32DllLoader::Unload avutil-50.dll
  829. 11:13:08 T:4192 M:569106432   DEBUG: SECTION:UnloadAll(DLL: special://xbmcbin/system/ImageLib.dll)
  830. 11:13:08 T:4192 M:569106432   DEBUG: Win32DllLoader::Unload ImageLib.dll
  831. 11:13:08 T:4192 M:570941440    INFO: lastfm destroyed